<?xml version="1.0" encoding="UTF-8" standalone="no" ?>
<gpx xmlns="http://www.topografix.com/GPX/1/1" xmlns:xsi="http://www.w3.org/2001/XMLSchema-instance" xsi:schemaLocation="http://www.topografix.com/GPX/1/1 http://www.topografix.com/GPX/1/1/gpx.xsd" version="1.1" creator="VisuGPX - https://www.visugpx.com">
  <metadata>
    <name>20250626-Boucle Devecey - Dame Blanche - Gdes Baraques</name>
    <desc><![CDATA[Attention quelques endroits où les sentiers ne sont pas entretenus notamment au dessus de Merey-Vieilley.]]></desc>
  </metadata>
  <trk>
    <name><![CDATA[20250626-Boucle Devecey - Dame Blanche - Gdes Baraques ]]></name>
    <trkseg>
      <trkpt lat="47.32797" lon="6.01143">
        <ele>281</ele>
        <time>2025-06-26T11:58:46Z</time>
      </trkpt>
      <trkpt lat="47.32794" lon="6.01163">
        <ele>279</ele>
        <time>2025-06-26T11:58:58Z</time>
      </trkpt>
      <trkpt lat="47.32796" lon="6.01183">
        <ele>279</ele>
        <time>2025-06-26T11:59:09Z</time>
      </trkpt>
      <trkpt lat="47.32795" lon="6.01203">
        <ele>279</ele>
        <time>2025-06-26T11:59:20Z</time>
      </trkpt>
      <trkpt lat="47.32805" lon="6.01218">
        <ele>279</ele>
        <time>2025-06-26T11:59:32Z</time>
      </trkpt>
      <trkpt lat="47.32818" lon="6.01214">
        <ele>280</ele>
        <time>2025-06-26T11:59:43Z</time>
      </trkpt>
      <trkpt lat="47.32832" lon="6.01212">
        <ele>280</ele>
        <time>2025-06-26T11:59:53Z</time>
      </trkpt>
      <trkpt lat="47.32838" lon="6.0123">
        <ele>279</ele>
        <time>2025-06-26T12:00:03Z</time>
      </trkpt>
      <trkpt lat="47.32844" lon="6.0125">
        <ele>279</ele>
        <time>2025-06-26T12:00:14Z</time>
      </trkpt>
      <trkpt lat="47.3285" lon="6.01269">
        <ele>279</ele>
        <time>2025-06-26T12:00:25Z</time>
      </trkpt>
      <trkpt lat="47.32854" lon="6.01288">
        <ele>276</ele>
        <time>2025-06-26T12:00:36Z</time>
      </trkpt>
      <trkpt lat="47.32866" lon="6.01298">
        <ele>281</ele>
        <time>2025-06-26T12:00:48Z</time>
      </trkpt>
      <trkpt lat="47.3287" lon="6.01317">
        <ele>276</ele>
        <time>2025-06-26T12:00:57Z</time>
      </trkpt>
      <trkpt lat="47.32874" lon="6.01337">
        <ele>278</ele>
        <time>2025-06-26T12:01:08Z</time>
      </trkpt>
      <trkpt lat="47.32879" lon="6.01356">
        <ele>276</ele>
        <time>2025-06-26T12:01:17Z</time>
      </trkpt>
      <trkpt lat="47.32883" lon="6.01377">
        <ele>275</ele>
        <time>2025-06-26T12:01:28Z</time>
      </trkpt>
      <trkpt lat="47.32885" lon="6.01396">
        <ele>276</ele>
        <time>2025-06-26T12:01:38Z</time>
      </trkpt>
      <trkpt lat="47.32887" lon="6.01417">
        <ele>275</ele>
        <time>2025-06-26T12:01:48Z</time>
      </trkpt>
      <trkpt lat="47.32891" lon="6.01436">
        <ele>275</ele>
        <time>2025-06-26T12:01:58Z</time>
      </trkpt>
      <trkpt lat="47.32894" lon="6.01457">
        <ele>275</ele>
        <time>2025-06-26T12:02:09Z</time>
      </trkpt>
      <trkpt lat="47.32898" lon="6.01476">
        <ele>275</ele>
        <time>2025-06-26T12:02:19Z</time>
      </trkpt>
      <trkpt lat="47.329" lon="6.01496">
        <ele>275</ele>
        <time>2025-06-26T12:02:29Z</time>
      </trkpt>
      <trkpt lat="47.32902" lon="6.01516">
        <ele>274</ele>
        <time>2025-06-26T12:02:40Z</time>
      </trkpt>
      <trkpt lat="47.32905" lon="6.01536">
        <ele>273</ele>
        <time>2025-06-26T12:02:50Z</time>
      </trkpt>
      <trkpt lat="47.32911" lon="6.01555">
        <ele>274</ele>
        <time>2025-06-26T12:03:00Z</time>
      </trkpt>
      <trkpt lat="47.32914" lon="6.01575">
        <ele>273</ele>
        <time>2025-06-26T12:03:10Z</time>
      </trkpt>
      <trkpt lat="47.32918" lon="6.01594">
        <ele>273</ele>
        <time>2025-06-26T12:03:20Z</time>
      </trkpt>
      <trkpt lat="47.32921" lon="6.01614">
        <ele>273</ele>
        <time>2025-06-26T12:03:29Z</time>
      </trkpt>
      <trkpt lat="47.32925" lon="6.01633">
        <ele>272</ele>
        <time>2025-06-26T12:03:40Z</time>
      </trkpt>
      <trkpt lat="47.32927" lon="6.01653">
        <ele>272</ele>
        <time>2025-06-26T12:03:50Z</time>
      </trkpt>
      <trkpt lat="47.32931" lon="6.01672">
        <ele>272</ele>
        <time>2025-06-26T12:04:00Z</time>
      </trkpt>
      <trkpt lat="47.32935" lon="6.01691">
        <ele>273</ele>
        <time>2025-06-26T12:04:10Z</time>
      </trkpt>
      <trkpt lat="47.32939" lon="6.01711">
        <ele>271</ele>
        <time>2025-06-26T12:04:19Z</time>
      </trkpt>
      <trkpt lat="47.32941" lon="6.01731">
        <ele>271</ele>
        <time>2025-06-26T12:04:29Z</time>
      </trkpt>
      <trkpt lat="47.32944" lon="6.01751">
        <ele>270</ele>
        <time>2025-06-26T12:04:39Z</time>
      </trkpt>
      <trkpt lat="47.32948" lon="6.0177">
        <ele>271</ele>
        <time>2025-06-26T12:04:48Z</time>
      </trkpt>
      <trkpt lat="47.3295" lon="6.0179">
        <ele>272</ele>
        <time>2025-06-26T12:04:59Z</time>
      </trkpt>
      <trkpt lat="47.32954" lon="6.01809">
        <ele>271</ele>
        <time>2025-06-26T12:05:08Z</time>
      </trkpt>
      <trkpt lat="47.32958" lon="6.01829">
        <ele>273</ele>
        <time>2025-06-26T12:05:19Z</time>
      </trkpt>
      <trkpt lat="47.32961" lon="6.01848">
        <ele>270</ele>
        <time>2025-06-26T12:05:28Z</time>
      </trkpt>
      <trkpt lat="47.32963" lon="6.01869">
        <ele>270</ele>
        <time>2025-06-26T12:05:39Z</time>
      </trkpt>
      <trkpt lat="47.32965" lon="6.01889">
        <ele>271</ele>
        <time>2025-06-26T12:05:49Z</time>
      </trkpt>
      <trkpt lat="47.3297" lon="6.01907">
        <ele>271</ele>
        <time>2025-06-26T12:06:00Z</time>
      </trkpt>
      <trkpt lat="47.32975" lon="6.01927">
        <ele>271</ele>
        <time>2025-06-26T12:06:08Z</time>
      </trkpt>
      <trkpt lat="47.32979" lon="6.01947">
        <ele>271</ele>
        <time>2025-06-26T12:06:18Z</time>
      </trkpt>
      <trkpt lat="47.32979" lon="6.01967">
        <ele>271</ele>
        <time>2025-06-26T12:06:40Z</time>
      </trkpt>
      <trkpt lat="47.32983" lon="6.01988">
        <ele>271</ele>
        <time>2025-06-26T12:06:50Z</time>
      </trkpt>
      <trkpt lat="47.32988" lon="6.02008">
        <ele>271</ele>
        <time>2025-06-26T12:06:59Z</time>
      </trkpt>
      <trkpt lat="47.32992" lon="6.02027">
        <ele>270</ele>
        <time>2025-06-26T12:07:09Z</time>
      </trkpt>
      <trkpt lat="47.32994" lon="6.02047">
        <ele>272</ele>
        <time>2025-06-26T12:07:21Z</time>
      </trkpt>
      <trkpt lat="47.33001" lon="6.02065">
        <ele>271</ele>
        <time>2025-06-26T12:07:32Z</time>
      </trkpt>
      <trkpt lat="47.33003" lon="6.02088">
        <ele>271</ele>
        <time>2025-06-26T12:07:43Z</time>
      </trkpt>
      <trkpt lat="47.33005" lon="6.02108">
        <ele>271</ele>
        <time>2025-06-26T12:07:53Z</time>
      </trkpt>
      <trkpt lat="47.33005" lon="6.02129">
        <ele>271</ele>
        <time>2025-06-26T12:08:04Z</time>
      </trkpt>
      <trkpt lat="47.33009" lon="6.02149">
        <ele>271</ele>
        <time>2025-06-26T12:08:12Z</time>
      </trkpt>
      <trkpt lat="47.33012" lon="6.02168">
        <ele>271</ele>
        <time>2025-06-26T12:08:21Z</time>
      </trkpt>
      <trkpt lat="47.33016" lon="6.02187">
        <ele>271</ele>
        <time>2025-06-26T12:08:31Z</time>
      </trkpt>
      <trkpt lat="47.3302" lon="6.02208">
        <ele>271</ele>
        <time>2025-06-26T12:08:41Z</time>
      </trkpt>
      <trkpt lat="47.33021" lon="6.02228">
        <ele>271</ele>
        <time>2025-06-26T12:08:51Z</time>
      </trkpt>
      <trkpt lat="47.33026" lon="6.02247">
        <ele>271</ele>
        <time>2025-06-26T12:09:00Z</time>
      </trkpt>
      <trkpt lat="47.33031" lon="6.02266">
        <ele>271</ele>
        <time>2025-06-26T12:09:09Z</time>
      </trkpt>
      <trkpt lat="47.33034" lon="6.02288">
        <ele>270</ele>
        <time>2025-06-26T12:09:19Z</time>
      </trkpt>
      <trkpt lat="47.3304" lon="6.02307">
        <ele>272</ele>
        <time>2025-06-26T12:09:28Z</time>
      </trkpt>
      <trkpt lat="47.33042" lon="6.02327">
        <ele>271</ele>
        <time>2025-06-26T12:09:37Z</time>
      </trkpt>
      <trkpt lat="47.33046" lon="6.02346">
        <ele>272</ele>
        <time>2025-06-26T12:09:48Z</time>
      </trkpt>
      <trkpt lat="47.33051" lon="6.02365">
        <ele>272</ele>
        <time>2025-06-26T12:09:58Z</time>
      </trkpt>
      <trkpt lat="47.33055" lon="6.02385">
        <ele>272</ele>
        <time>2025-06-26T12:10:08Z</time>
      </trkpt>
      <trkpt lat="47.33061" lon="6.02404">
        <ele>272</ele>
        <time>2025-06-26T12:10:17Z</time>
      </trkpt>
      <trkpt lat="47.33065" lon="6.02423">
        <ele>272</ele>
        <time>2025-06-26T12:10:26Z</time>
      </trkpt>
      <trkpt lat="47.33071" lon="6.02441">
        <ele>273</ele>
        <time>2025-06-26T12:10:36Z</time>
      </trkpt>
      <trkpt lat="47.33077" lon="6.0246">
        <ele>272</ele>
        <time>2025-06-26T12:10:45Z</time>
      </trkpt>
      <trkpt lat="47.33082" lon="6.02479">
        <ele>274</ele>
        <time>2025-06-26T12:10:56Z</time>
      </trkpt>
      <trkpt lat="47.33086" lon="6.025">
        <ele>274</ele>
        <time>2025-06-26T12:11:07Z</time>
      </trkpt>
      <trkpt lat="47.33092" lon="6.02518">
        <ele>274</ele>
        <time>2025-06-26T12:11:17Z</time>
      </trkpt>
      <trkpt lat="47.331" lon="6.02535">
        <ele>274</ele>
        <time>2025-06-26T12:11:29Z</time>
      </trkpt>
      <trkpt lat="47.33107" lon="6.02554">
        <ele>275</ele>
        <time>2025-06-26T12:11:39Z</time>
      </trkpt>
      <trkpt lat="47.33115" lon="6.02571">
        <ele>275</ele>
        <time>2025-06-26T12:11:48Z</time>
      </trkpt>
      <trkpt lat="47.33121" lon="6.02589">
        <ele>274</ele>
        <time>2025-06-26T12:11:56Z</time>
      </trkpt>
      <trkpt lat="47.33126" lon="6.02608">
        <ele>275</ele>
        <time>2025-06-26T12:12:06Z</time>
      </trkpt>
      <trkpt lat="47.33133" lon="6.02626">
        <ele>277</ele>
        <time>2025-06-26T12:12:15Z</time>
      </trkpt>
      <trkpt lat="47.33141" lon="6.02645">
        <ele>276</ele>
        <time>2025-06-26T12:12:25Z</time>
      </trkpt>
      <trkpt lat="47.33148" lon="6.02662">
        <ele>276</ele>
        <time>2025-06-26T12:12:35Z</time>
      </trkpt>
      <trkpt lat="47.33156" lon="6.02679">
        <ele>276</ele>
        <time>2025-06-26T12:12:47Z</time>
      </trkpt>
      <trkpt lat="47.33165" lon="6.02694">
        <ele>276</ele>
        <time>2025-06-26T12:12:56Z</time>
      </trkpt>
      <trkpt lat="47.33171" lon="6.02713">
        <ele>276</ele>
        <time>2025-06-26T12:13:07Z</time>
      </trkpt>
      <trkpt lat="47.33174" lon="6.02734">
        <ele>277</ele>
        <time>2025-06-26T12:13:20Z</time>
      </trkpt>
      <trkpt lat="47.33182" lon="6.02751">
        <ele>281</ele>
        <time>2025-06-26T12:13:29Z</time>
      </trkpt>
      <trkpt lat="47.3319" lon="6.02767">
        <ele>277</ele>
        <time>2025-06-26T12:13:38Z</time>
      </trkpt>
      <trkpt lat="47.33198" lon="6.02782">
        <ele>277</ele>
        <time>2025-06-26T12:13:48Z</time>
      </trkpt>
      <trkpt lat="47.33206" lon="6.02801">
        <ele>278</ele>
        <time>2025-06-26T12:13:58Z</time>
      </trkpt>
      <trkpt lat="47.33213" lon="6.02819">
        <ele>279</ele>
        <time>2025-06-26T12:14:08Z</time>
      </trkpt>
      <trkpt lat="47.3322" lon="6.02836">
        <ele>279</ele>
        <time>2025-06-26T12:14:18Z</time>
      </trkpt>
      <trkpt lat="47.33227" lon="6.02854">
        <ele>279</ele>
        <time>2025-06-26T12:14:27Z</time>
      </trkpt>
      <trkpt lat="47.33235" lon="6.0287">
        <ele>279</ele>
        <time>2025-06-26T12:14:36Z</time>
      </trkpt>
      <trkpt lat="47.33242" lon="6.0289">
        <ele>279</ele>
        <time>2025-06-26T12:14:47Z</time>
      </trkpt>
      <trkpt lat="47.33248" lon="6.02908">
        <ele>279</ele>
        <time>2025-06-26T12:14:58Z</time>
      </trkpt>
      <trkpt lat="47.33256" lon="6.02925">
        <ele>279</ele>
        <time>2025-06-26T12:15:07Z</time>
      </trkpt>
      <trkpt lat="47.33265" lon="6.02944">
        <ele>279</ele>
        <time>2025-06-26T12:15:17Z</time>
      </trkpt>
      <trkpt lat="47.33273" lon="6.02962">
        <ele>279</ele>
        <time>2025-06-26T12:15:28Z</time>
      </trkpt>
      <trkpt lat="47.3328" lon="6.0298">
        <ele>279</ele>
        <time>2025-06-26T12:15:37Z</time>
      </trkpt>
      <trkpt lat="47.33287" lon="6.02998">
        <ele>279</ele>
        <time>2025-06-26T12:15:47Z</time>
      </trkpt>
      <trkpt lat="47.33296" lon="6.03016">
        <ele>278</ele>
        <time>2025-06-26T12:15:57Z</time>
      </trkpt>
      <trkpt lat="47.33303" lon="6.03033">
        <ele>278</ele>
        <time>2025-06-26T12:16:07Z</time>
      </trkpt>
      <trkpt lat="47.33311" lon="6.03051">
        <ele>278</ele>
        <time>2025-06-26T12:16:16Z</time>
      </trkpt>
      <trkpt lat="47.33316" lon="6.0307">
        <ele>278</ele>
        <time>2025-06-26T12:16:26Z</time>
      </trkpt>
      <trkpt lat="47.33324" lon="6.03086">
        <ele>278</ele>
        <time>2025-06-26T12:16:35Z</time>
      </trkpt>
      <trkpt lat="47.3333" lon="6.03104">
        <ele>278</ele>
        <time>2025-06-26T12:16:44Z</time>
      </trkpt>
      <trkpt lat="47.33338" lon="6.03121">
        <ele>278</ele>
        <time>2025-06-26T12:16:54Z</time>
      </trkpt>
      <trkpt lat="47.33345" lon="6.03139">
        <ele>278</ele>
        <time>2025-06-26T12:17:03Z</time>
      </trkpt>
      <trkpt lat="47.33353" lon="6.03155">
        <ele>279</ele>
        <time>2025-06-26T12:17:13Z</time>
      </trkpt>
      <trkpt lat="47.3336" lon="6.03173">
        <ele>277</ele>
        <time>2025-06-26T12:17:23Z</time>
      </trkpt>
      <trkpt lat="47.33368" lon="6.0319">
        <ele>278</ele>
        <time>2025-06-26T12:17:33Z</time>
      </trkpt>
      <trkpt lat="47.33376" lon="6.03207">
        <ele>278</ele>
        <time>2025-06-26T12:17:42Z</time>
      </trkpt>
      <trkpt lat="47.33383" lon="6.03225">
        <ele>277</ele>
        <time>2025-06-26T12:17:54Z</time>
      </trkpt>
      <trkpt lat="47.3339" lon="6.03242">
        <ele>278</ele>
        <time>2025-06-26T12:18:03Z</time>
      </trkpt>
      <trkpt lat="47.33397" lon="6.0326">
        <ele>278</ele>
        <time>2025-06-26T12:18:14Z</time>
      </trkpt>
      <trkpt lat="47.33404" lon="6.0328">
        <ele>276</ele>
        <time>2025-06-26T12:18:25Z</time>
      </trkpt>
      <trkpt lat="47.3341" lon="6.03297">
        <ele>279</ele>
        <time>2025-06-26T12:18:34Z</time>
      </trkpt>
      <trkpt lat="47.33413" lon="6.03317">
        <ele>278</ele>
        <time>2025-06-26T12:18:43Z</time>
      </trkpt>
      <trkpt lat="47.33423" lon="6.03336">
        <ele>278</ele>
        <time>2025-06-26T12:18:56Z</time>
      </trkpt>
      <trkpt lat="47.33434" lon="6.03352">
        <ele>278</ele>
        <time>2025-06-26T12:19:05Z</time>
      </trkpt>
      <trkpt lat="47.3344" lon="6.0337">
        <ele>278</ele>
        <time>2025-06-26T12:19:14Z</time>
      </trkpt>
      <trkpt lat="47.33446" lon="6.03388">
        <ele>277</ele>
        <time>2025-06-26T12:19:25Z</time>
      </trkpt>
      <trkpt lat="47.33453" lon="6.03405">
        <ele>277</ele>
        <time>2025-06-26T12:19:33Z</time>
      </trkpt>
      <trkpt lat="47.33461" lon="6.03423">
        <ele>278</ele>
        <time>2025-06-26T12:19:42Z</time>
      </trkpt>
      <trkpt lat="47.3347" lon="6.03438">
        <ele>277</ele>
        <time>2025-06-26T12:19:50Z</time>
      </trkpt>
      <trkpt lat="47.33477" lon="6.03456">
        <ele>277</ele>
        <time>2025-06-26T12:20:01Z</time>
      </trkpt>
      <trkpt lat="47.33483" lon="6.03475">
        <ele>278</ele>
        <time>2025-06-26T12:20:10Z</time>
      </trkpt>
      <trkpt lat="47.33491" lon="6.03493">
        <ele>278</ele>
        <time>2025-06-26T12:20:20Z</time>
      </trkpt>
      <trkpt lat="47.33498" lon="6.0351">
        <ele>277</ele>
        <time>2025-06-26T12:20:29Z</time>
      </trkpt>
      <trkpt lat="47.33507" lon="6.03527">
        <ele>277</ele>
        <time>2025-06-26T12:20:39Z</time>
      </trkpt>
      <trkpt lat="47.33516" lon="6.03543">
        <ele>277</ele>
        <time>2025-06-26T12:20:48Z</time>
      </trkpt>
      <trkpt lat="47.33522" lon="6.03562">
        <ele>276</ele>
        <time>2025-06-26T12:20:58Z</time>
      </trkpt>
      <trkpt lat="47.33528" lon="6.0358">
        <ele>276</ele>
        <time>2025-06-26T12:21:08Z</time>
      </trkpt>
      <trkpt lat="47.33536" lon="6.03598">
        <ele>276</ele>
        <time>2025-06-26T12:21:19Z</time>
      </trkpt>
      <trkpt lat="47.33544" lon="6.03615">
        <ele>276</ele>
        <time>2025-06-26T12:21:29Z</time>
      </trkpt>
      <trkpt lat="47.33552" lon="6.03632">
        <ele>276</ele>
        <time>2025-06-26T12:21:38Z</time>
      </trkpt>
      <trkpt lat="47.33558" lon="6.03651">
        <ele>276</ele>
        <time>2025-06-26T12:21:48Z</time>
      </trkpt>
      <trkpt lat="47.33564" lon="6.03669">
        <ele>276</ele>
        <time>2025-06-26T12:21:58Z</time>
      </trkpt>
      <trkpt lat="47.33571" lon="6.03687">
        <ele>275</ele>
        <time>2025-06-26T12:22:07Z</time>
      </trkpt>
      <trkpt lat="47.33579" lon="6.03703">
        <ele>275</ele>
        <time>2025-06-26T12:22:17Z</time>
      </trkpt>
      <trkpt lat="47.33587" lon="6.03721">
        <ele>275</ele>
        <time>2025-06-26T12:22:27Z</time>
      </trkpt>
      <trkpt lat="47.33595" lon="6.03739">
        <ele>275</ele>
        <time>2025-06-26T12:22:37Z</time>
      </trkpt>
      <trkpt lat="47.33602" lon="6.03756">
        <ele>276</ele>
        <time>2025-06-26T12:22:47Z</time>
      </trkpt>
      <trkpt lat="47.33609" lon="6.03774">
        <ele>275</ele>
        <time>2025-06-26T12:22:57Z</time>
      </trkpt>
      <trkpt lat="47.33616" lon="6.03792">
        <ele>275</ele>
        <time>2025-06-26T12:23:07Z</time>
      </trkpt>
      <trkpt lat="47.33624" lon="6.03808">
        <ele>274</ele>
        <time>2025-06-26T12:23:16Z</time>
      </trkpt>
      <trkpt lat="47.3363" lon="6.03826">
        <ele>275</ele>
        <time>2025-06-26T12:23:26Z</time>
      </trkpt>
      <trkpt lat="47.33636" lon="6.03844">
        <ele>275</ele>
        <time>2025-06-26T12:23:37Z</time>
      </trkpt>
      <trkpt lat="47.33645" lon="6.0386">
        <ele>275</ele>
        <time>2025-06-26T12:23:47Z</time>
      </trkpt>
      <trkpt lat="47.33653" lon="6.03877">
        <ele>275</ele>
        <time>2025-06-26T12:23:57Z</time>
      </trkpt>
      <trkpt lat="47.33659" lon="6.03895">
        <ele>275</ele>
        <time>2025-06-26T12:24:07Z</time>
      </trkpt>
      <trkpt lat="47.33665" lon="6.03913">
        <ele>275</ele>
        <time>2025-06-26T12:24:18Z</time>
      </trkpt>
      <trkpt lat="47.33673" lon="6.0393">
        <ele>276</ele>
        <time>2025-06-26T12:24:29Z</time>
      </trkpt>
      <trkpt lat="47.33681" lon="6.03947">
        <ele>274</ele>
        <time>2025-06-26T12:24:38Z</time>
      </trkpt>
      <trkpt lat="47.33688" lon="6.03965">
        <ele>275</ele>
        <time>2025-06-26T12:24:47Z</time>
      </trkpt>
      <trkpt lat="47.33695" lon="6.03982">
        <ele>274</ele>
        <time>2025-06-26T12:24:56Z</time>
      </trkpt>
      <trkpt lat="47.33702" lon="6.04001">
        <ele>273</ele>
        <time>2025-06-26T12:25:07Z</time>
      </trkpt>
      <trkpt lat="47.33709" lon="6.04019">
        <ele>273</ele>
        <time>2025-06-26T12:25:16Z</time>
      </trkpt>
      <trkpt lat="47.33717" lon="6.04035">
        <ele>273</ele>
        <time>2025-06-26T12:25:25Z</time>
      </trkpt>
      <trkpt lat="47.33723" lon="6.04054">
        <ele>274</ele>
        <time>2025-06-26T12:25:35Z</time>
      </trkpt>
      <trkpt lat="47.3373" lon="6.04071">
        <ele>274</ele>
        <time>2025-06-26T12:25:44Z</time>
      </trkpt>
      <trkpt lat="47.33738" lon="6.0409">
        <ele>274</ele>
        <time>2025-06-26T12:25:54Z</time>
      </trkpt>
      <trkpt lat="47.33746" lon="6.04106">
        <ele>274</ele>
        <time>2025-06-26T12:26:04Z</time>
      </trkpt>
      <trkpt lat="47.33751" lon="6.04124">
        <ele>275</ele>
        <time>2025-06-26T12:26:13Z</time>
      </trkpt>
      <trkpt lat="47.33759" lon="6.04142">
        <ele>275</ele>
        <time>2025-06-26T12:26:23Z</time>
      </trkpt>
      <trkpt lat="47.33769" lon="6.04156">
        <ele>273</ele>
        <time>2025-06-26T12:26:33Z</time>
      </trkpt>
      <trkpt lat="47.33774" lon="6.04175">
        <ele>274</ele>
        <time>2025-06-26T12:26:42Z</time>
      </trkpt>
      <trkpt lat="47.33779" lon="6.04194">
        <ele>274</ele>
        <time>2025-06-26T12:26:52Z</time>
      </trkpt>
      <trkpt lat="47.33784" lon="6.04212">
        <ele>274</ele>
        <time>2025-06-26T12:27:02Z</time>
      </trkpt>
      <trkpt lat="47.33793" lon="6.04228">
        <ele>275</ele>
        <time>2025-06-26T12:27:12Z</time>
      </trkpt>
      <trkpt lat="47.33799" lon="6.04247">
        <ele>275</ele>
        <time>2025-06-26T12:27:23Z</time>
      </trkpt>
      <trkpt lat="47.33804" lon="6.04266">
        <ele>275</ele>
        <time>2025-06-26T12:27:33Z</time>
      </trkpt>
      <trkpt lat="47.33812" lon="6.04286">
        <ele>275</ele>
        <time>2025-06-26T12:27:45Z</time>
      </trkpt>
      <trkpt lat="47.33818" lon="6.04304">
        <ele>275</ele>
        <time>2025-06-26T12:27:55Z</time>
      </trkpt>
      <trkpt lat="47.33823" lon="6.04323">
        <ele>276</ele>
        <time>2025-06-26T12:28:04Z</time>
      </trkpt>
      <trkpt lat="47.33828" lon="6.04343">
        <ele>276</ele>
        <time>2025-06-26T12:28:14Z</time>
      </trkpt>
      <trkpt lat="47.33832" lon="6.04362">
        <ele>276</ele>
        <time>2025-06-26T12:28:24Z</time>
      </trkpt>
      <trkpt lat="47.33838" lon="6.04381">
        <ele>276</ele>
        <time>2025-06-26T12:28:34Z</time>
      </trkpt>
      <trkpt lat="47.33843" lon="6.044">
        <ele>276</ele>
        <time>2025-06-26T12:28:45Z</time>
      </trkpt>
      <trkpt lat="47.33847" lon="6.04419">
        <ele>276</ele>
        <time>2025-06-26T12:28:56Z</time>
      </trkpt>
      <trkpt lat="47.33851" lon="6.04438">
        <ele>277</ele>
        <time>2025-06-26T12:29:59Z</time>
      </trkpt>
      <trkpt lat="47.33855" lon="6.04457">
        <ele>278</ele>
        <time>2025-06-26T12:30:10Z</time>
      </trkpt>
      <trkpt lat="47.3386" lon="6.04477">
        <ele>277</ele>
        <time>2025-06-26T12:30:22Z</time>
      </trkpt>
      <trkpt lat="47.33865" lon="6.04497">
        <ele>278</ele>
        <time>2025-06-26T12:30:32Z</time>
      </trkpt>
      <trkpt lat="47.33867" lon="6.04517">
        <ele>278</ele>
        <time>2025-06-26T12:30:42Z</time>
      </trkpt>
      <trkpt lat="47.33871" lon="6.04537">
        <ele>278</ele>
        <time>2025-06-26T12:30:52Z</time>
      </trkpt>
      <trkpt lat="47.33871" lon="6.04557">
        <ele>278</ele>
        <time>2025-06-26T12:31:02Z</time>
      </trkpt>
      <trkpt lat="47.33876" lon="6.04577">
        <ele>278</ele>
        <time>2025-06-26T12:33:08Z</time>
      </trkpt>
      <trkpt lat="47.33878" lon="6.04597">
        <ele>279</ele>
        <time>2025-06-26T12:33:20Z</time>
      </trkpt>
      <trkpt lat="47.3388" lon="6.04617">
        <ele>278</ele>
        <time>2025-06-26T12:33:31Z</time>
      </trkpt>
      <trkpt lat="47.33882" lon="6.04637">
        <ele>279</ele>
        <time>2025-06-26T12:33:50Z</time>
      </trkpt>
      <trkpt lat="47.33885" lon="6.04657">
        <ele>277</ele>
        <time>2025-06-26T12:33:59Z</time>
      </trkpt>
      <trkpt lat="47.33886" lon="6.04677">
        <ele>278</ele>
        <time>2025-06-26T12:34:08Z</time>
      </trkpt>
      <trkpt lat="47.33889" lon="6.04698">
        <ele>282</ele>
        <time>2025-06-26T12:34:18Z</time>
      </trkpt>
      <trkpt lat="47.33887" lon="6.04719">
        <ele>280</ele>
        <time>2025-06-26T12:34:29Z</time>
      </trkpt>
      <trkpt lat="47.33888" lon="6.04739">
        <ele>279</ele>
        <time>2025-06-26T12:34:49Z</time>
      </trkpt>
      <trkpt lat="47.33891" lon="6.04761">
        <ele>279</ele>
        <time>2025-06-26T12:35:14Z</time>
      </trkpt>
      <trkpt lat="47.33893" lon="6.04783">
        <ele>279</ele>
        <time>2025-06-26T12:35:23Z</time>
      </trkpt>
      <trkpt lat="47.33893" lon="6.04808">
        <ele>280</ele>
        <time>2025-06-26T12:35:35Z</time>
      </trkpt>
      <trkpt lat="47.33895" lon="6.04827">
        <ele>279</ele>
        <time>2025-06-26T12:35:45Z</time>
      </trkpt>
      <trkpt lat="47.33895" lon="6.04847">
        <ele>280</ele>
        <time>2025-06-26T12:35:55Z</time>
      </trkpt>
      <trkpt lat="47.33899" lon="6.04867">
        <ele>279</ele>
        <time>2025-06-26T12:36:05Z</time>
      </trkpt>
      <trkpt lat="47.33901" lon="6.04889">
        <ele>280</ele>
        <time>2025-06-26T12:36:15Z</time>
      </trkpt>
      <trkpt lat="47.33904" lon="6.04908">
        <ele>280</ele>
        <time>2025-06-26T12:36:24Z</time>
      </trkpt>
      <trkpt lat="47.33904" lon="6.04929">
        <ele>280</ele>
        <time>2025-06-26T12:36:34Z</time>
      </trkpt>
      <trkpt lat="47.33906" lon="6.0495">
        <ele>280</ele>
        <time>2025-06-26T12:36:44Z</time>
      </trkpt>
      <trkpt lat="47.33909" lon="6.04972">
        <ele>280</ele>
        <time>2025-06-26T12:36:55Z</time>
      </trkpt>
      <trkpt lat="47.33911" lon="6.04991">
        <ele>281</ele>
        <time>2025-06-26T12:37:04Z</time>
      </trkpt>
      <trkpt lat="47.33911" lon="6.05014">
        <ele>281</ele>
        <time>2025-06-26T12:37:15Z</time>
      </trkpt>
      <trkpt lat="47.33911" lon="6.05034">
        <ele>281</ele>
        <time>2025-06-26T12:37:24Z</time>
      </trkpt>
      <trkpt lat="47.33912" lon="6.05055">
        <ele>282</ele>
        <time>2025-06-26T12:37:33Z</time>
      </trkpt>
      <trkpt lat="47.33915" lon="6.05075">
        <ele>282</ele>
        <time>2025-06-26T12:37:42Z</time>
      </trkpt>
      <trkpt lat="47.33918" lon="6.05095">
        <ele>282</ele>
        <time>2025-06-26T12:37:51Z</time>
      </trkpt>
      <trkpt lat="47.33919" lon="6.05116">
        <ele>283</ele>
        <time>2025-06-26T12:38:01Z</time>
      </trkpt>
      <trkpt lat="47.33919" lon="6.05137">
        <ele>283</ele>
        <time>2025-06-26T12:38:11Z</time>
      </trkpt>
      <trkpt lat="47.3392" lon="6.05157">
        <ele>283</ele>
        <time>2025-06-26T12:38:20Z</time>
      </trkpt>
      <trkpt lat="47.33923" lon="6.05177">
        <ele>284</ele>
        <time>2025-06-26T12:38:29Z</time>
      </trkpt>
      <trkpt lat="47.33926" lon="6.05198">
        <ele>284</ele>
        <time>2025-06-26T12:38:39Z</time>
      </trkpt>
      <trkpt lat="47.33928" lon="6.05219">
        <ele>284</ele>
        <time>2025-06-26T12:38:49Z</time>
      </trkpt>
      <trkpt lat="47.33927" lon="6.05239">
        <ele>284</ele>
        <time>2025-06-26T12:38:58Z</time>
      </trkpt>
      <trkpt lat="47.33928" lon="6.05262">
        <ele>284</ele>
        <time>2025-06-26T12:39:09Z</time>
      </trkpt>
      <trkpt lat="47.33929" lon="6.05283">
        <ele>284</ele>
        <time>2025-06-26T12:39:19Z</time>
      </trkpt>
      <trkpt lat="47.33931" lon="6.05304">
        <ele>285</ele>
        <time>2025-06-26T12:39:29Z</time>
      </trkpt>
      <trkpt lat="47.33934" lon="6.05324">
        <ele>285</ele>
        <time>2025-06-26T12:39:38Z</time>
      </trkpt>
      <trkpt lat="47.33938" lon="6.05346">
        <ele>285</ele>
        <time>2025-06-26T12:39:49Z</time>
      </trkpt>
      <trkpt lat="47.3394" lon="6.05367">
        <ele>285</ele>
        <time>2025-06-26T12:39:59Z</time>
      </trkpt>
      <trkpt lat="47.33942" lon="6.05389">
        <ele>285</ele>
        <time>2025-06-26T12:40:08Z</time>
      </trkpt>
      <trkpt lat="47.33944" lon="6.05409">
        <ele>285</ele>
        <time>2025-06-26T12:40:17Z</time>
      </trkpt>
      <trkpt lat="47.33946" lon="6.05429">
        <ele>285</ele>
        <time>2025-06-26T12:40:27Z</time>
      </trkpt>
      <trkpt lat="47.33948" lon="6.05449">
        <ele>286</ele>
        <time>2025-06-26T12:40:37Z</time>
      </trkpt>
      <trkpt lat="47.33951" lon="6.05469">
        <ele>285</ele>
        <time>2025-06-26T12:40:47Z</time>
      </trkpt>
      <trkpt lat="47.33953" lon="6.0549">
        <ele>283</ele>
        <time>2025-06-26T12:40:57Z</time>
      </trkpt>
      <trkpt lat="47.33952" lon="6.05509">
        <ele>285</ele>
        <time>2025-06-26T12:41:06Z</time>
      </trkpt>
      <trkpt lat="47.33953" lon="6.05529">
        <ele>286</ele>
        <time>2025-06-26T12:41:16Z</time>
      </trkpt>
      <trkpt lat="47.33955" lon="6.05549">
        <ele>285</ele>
        <time>2025-06-26T12:41:26Z</time>
      </trkpt>
      <trkpt lat="47.33957" lon="6.0557">
        <ele>286</ele>
        <time>2025-06-26T12:41:36Z</time>
      </trkpt>
      <trkpt lat="47.33962" lon="6.05589">
        <ele>285</ele>
        <time>2025-06-26T12:42:05Z</time>
      </trkpt>
      <trkpt lat="47.3396" lon="6.0561">
        <ele>285</ele>
        <time>2025-06-26T12:42:14Z</time>
      </trkpt>
      <trkpt lat="47.33961" lon="6.05631">
        <ele>283</ele>
        <time>2025-06-26T12:42:24Z</time>
      </trkpt>
      <trkpt lat="47.33964" lon="6.05652">
        <ele>285</ele>
        <time>2025-06-26T12:42:33Z</time>
      </trkpt>
      <trkpt lat="47.33967" lon="6.05672">
        <ele>285</ele>
        <time>2025-06-26T12:42:44Z</time>
      </trkpt>
      <trkpt lat="47.33966" lon="6.05692">
        <ele>284</ele>
        <time>2025-06-26T12:42:53Z</time>
      </trkpt>
      <trkpt lat="47.33969" lon="6.05712">
        <ele>285</ele>
        <time>2025-06-26T12:43:02Z</time>
      </trkpt>
      <trkpt lat="47.33971" lon="6.05732">
        <ele>285</ele>
        <time>2025-06-26T12:43:11Z</time>
      </trkpt>
      <trkpt lat="47.33971" lon="6.05752">
        <ele>284</ele>
        <time>2025-06-26T12:43:21Z</time>
      </trkpt>
      <trkpt lat="47.33973" lon="6.05772">
        <ele>286</ele>
        <time>2025-06-26T12:43:31Z</time>
      </trkpt>
      <trkpt lat="47.33972" lon="6.05795">
        <ele>284</ele>
        <time>2025-06-26T12:43:43Z</time>
      </trkpt>
      <trkpt lat="47.33972" lon="6.05815">
        <ele>284</ele>
        <time>2025-06-26T12:43:52Z</time>
      </trkpt>
      <trkpt lat="47.33976" lon="6.05834">
        <ele>284</ele>
        <time>2025-06-26T12:44:02Z</time>
      </trkpt>
      <trkpt lat="47.33978" lon="6.05856">
        <ele>283</ele>
        <time>2025-06-26T12:44:14Z</time>
      </trkpt>
      <trkpt lat="47.33981" lon="6.05876">
        <ele>284</ele>
        <time>2025-06-26T12:44:22Z</time>
      </trkpt>
      <trkpt lat="47.33983" lon="6.05895">
        <ele>284</ele>
        <time>2025-06-26T12:44:31Z</time>
      </trkpt>
      <trkpt lat="47.33981" lon="6.05916">
        <ele>284</ele>
        <time>2025-06-26T12:44:41Z</time>
      </trkpt>
      <trkpt lat="47.33983" lon="6.05935">
        <ele>284</ele>
        <time>2025-06-26T12:44:51Z</time>
      </trkpt>
      <trkpt lat="47.33987" lon="6.05956">
        <ele>284</ele>
        <time>2025-06-26T12:45:00Z</time>
      </trkpt>
      <trkpt lat="47.33993" lon="6.05976">
        <ele>284</ele>
        <time>2025-06-26T12:45:12Z</time>
      </trkpt>
      <trkpt lat="47.33993" lon="6.05996">
        <ele>284</ele>
        <time>2025-06-26T12:45:21Z</time>
      </trkpt>
      <trkpt lat="47.33994" lon="6.06016">
        <ele>282</ele>
        <time>2025-06-26T12:45:31Z</time>
      </trkpt>
      <trkpt lat="47.33995" lon="6.06037">
        <ele>284</ele>
        <time>2025-06-26T12:45:42Z</time>
      </trkpt>
      <trkpt lat="47.33997" lon="6.06058">
        <ele>283</ele>
        <time>2025-06-26T12:45:52Z</time>
      </trkpt>
      <trkpt lat="47.33999" lon="6.0608">
        <ele>283</ele>
        <time>2025-06-26T12:46:04Z</time>
      </trkpt>
      <trkpt lat="47.34001" lon="6.061">
        <ele>282</ele>
        <time>2025-06-26T12:46:14Z</time>
      </trkpt>
      <trkpt lat="47.33996" lon="6.06119">
        <ele>284</ele>
        <time>2025-06-26T12:46:26Z</time>
      </trkpt>
      <trkpt lat="47.33982" lon="6.06122">
        <ele>283</ele>
        <time>2025-06-26T12:46:36Z</time>
      </trkpt>
      <trkpt lat="47.33969" lon="6.06121">
        <ele>284</ele>
        <time>2025-06-26T12:46:46Z</time>
      </trkpt>
      <trkpt lat="47.33955" lon="6.06122">
        <ele>282</ele>
        <time>2025-06-26T12:46:56Z</time>
      </trkpt>
      <trkpt lat="47.33941" lon="6.06122">
        <ele>283</ele>
        <time>2025-06-26T12:47:06Z</time>
      </trkpt>
      <trkpt lat="47.33927" lon="6.06123">
        <ele>283</ele>
        <time>2025-06-26T12:47:17Z</time>
      </trkpt>
      <trkpt lat="47.33913" lon="6.06122">
        <ele>281</ele>
        <time>2025-06-26T12:47:26Z</time>
      </trkpt>
      <trkpt lat="47.33899" lon="6.06122">
        <ele>286</ele>
        <time>2025-06-26T12:47:37Z</time>
      </trkpt>
      <trkpt lat="47.33885" lon="6.06125">
        <ele>285</ele>
        <time>2025-06-26T12:47:50Z</time>
      </trkpt>
      <trkpt lat="47.33871" lon="6.06125">
        <ele>285</ele>
        <time>2025-06-26T12:47:58Z</time>
      </trkpt>
      <trkpt lat="47.33857" lon="6.06127">
        <ele>285</ele>
        <time>2025-06-26T12:48:08Z</time>
      </trkpt>
      <trkpt lat="47.33843" lon="6.06124">
        <ele>284</ele>
        <time>2025-06-26T12:48:18Z</time>
      </trkpt>
      <trkpt lat="47.33829" lon="6.06126">
        <ele>285</ele>
        <time>2025-06-26T12:48:28Z</time>
      </trkpt>
      <trkpt lat="47.33815" lon="6.06124">
        <ele>286</ele>
        <time>2025-06-26T12:48:38Z</time>
      </trkpt>
      <trkpt lat="47.33801" lon="6.06126">
        <ele>287</ele>
        <time>2025-06-26T12:48:47Z</time>
      </trkpt>
      <trkpt lat="47.33787" lon="6.06123">
        <ele>287</ele>
        <time>2025-06-26T12:48:57Z</time>
      </trkpt>
      <trkpt lat="47.33774" lon="6.06124">
        <ele>287</ele>
        <time>2025-06-26T12:49:07Z</time>
      </trkpt>
      <trkpt lat="47.3376" lon="6.06122">
        <ele>287</ele>
        <time>2025-06-26T12:49:17Z</time>
      </trkpt>
      <trkpt lat="47.33746" lon="6.06119">
        <ele>288</ele>
        <time>2025-06-26T12:49:27Z</time>
      </trkpt>
      <trkpt lat="47.33732" lon="6.06118">
        <ele>292</ele>
        <time>2025-06-26T12:49:37Z</time>
      </trkpt>
      <trkpt lat="47.33718" lon="6.06119">
        <ele>289</ele>
        <time>2025-06-26T12:49:46Z</time>
      </trkpt>
      <trkpt lat="47.33704" lon="6.06117">
        <ele>291</ele>
        <time>2025-06-26T12:49:57Z</time>
      </trkpt>
      <trkpt lat="47.33691" lon="6.06114">
        <ele>290</ele>
        <time>2025-06-26T12:50:07Z</time>
      </trkpt>
      <trkpt lat="47.33677" lon="6.06112">
        <ele>292</ele>
        <time>2025-06-26T12:50:17Z</time>
      </trkpt>
      <trkpt lat="47.33662" lon="6.0611">
        <ele>291</ele>
        <time>2025-06-26T12:50:27Z</time>
      </trkpt>
      <trkpt lat="47.33649" lon="6.0611">
        <ele>294</ele>
        <time>2025-06-26T12:50:37Z</time>
      </trkpt>
      <trkpt lat="47.33635" lon="6.06111">
        <ele>294</ele>
        <time>2025-06-26T12:50:46Z</time>
      </trkpt>
      <trkpt lat="47.33621" lon="6.06109">
        <ele>294</ele>
        <time>2025-06-26T12:50:58Z</time>
      </trkpt>
      <trkpt lat="47.33608" lon="6.06104">
        <ele>295</ele>
        <time>2025-06-26T12:51:07Z</time>
      </trkpt>
      <trkpt lat="47.33595" lon="6.06098">
        <ele>296</ele>
        <time>2025-06-26T12:51:16Z</time>
      </trkpt>
      <trkpt lat="47.33581" lon="6.06094">
        <ele>295</ele>
        <time>2025-06-26T12:51:25Z</time>
      </trkpt>
      <trkpt lat="47.33567" lon="6.06089">
        <ele>296</ele>
        <time>2025-06-26T12:51:36Z</time>
      </trkpt>
      <trkpt lat="47.33553" lon="6.06088">
        <ele>297</ele>
        <time>2025-06-26T12:51:46Z</time>
      </trkpt>
      <trkpt lat="47.3354" lon="6.06084">
        <ele>298</ele>
        <time>2025-06-26T12:51:57Z</time>
      </trkpt>
      <trkpt lat="47.33526" lon="6.06082">
        <ele>298</ele>
        <time>2025-06-26T12:52:06Z</time>
      </trkpt>
      <trkpt lat="47.33512" lon="6.06081">
        <ele>300</ele>
        <time>2025-06-26T12:52:16Z</time>
      </trkpt>
      <trkpt lat="47.33498" lon="6.06078">
        <ele>301</ele>
        <time>2025-06-26T12:52:29Z</time>
      </trkpt>
      <trkpt lat="47.33484" lon="6.06075">
        <ele>302</ele>
        <time>2025-06-26T12:52:38Z</time>
      </trkpt>
      <trkpt lat="47.3347" lon="6.06073">
        <ele>303</ele>
        <time>2025-06-26T12:52:49Z</time>
      </trkpt>
      <trkpt lat="47.33457" lon="6.06071">
        <ele>305</ele>
        <time>2025-06-26T12:52:58Z</time>
      </trkpt>
      <trkpt lat="47.33443" lon="6.06072">
        <ele>307</ele>
        <time>2025-06-26T12:53:08Z</time>
      </trkpt>
      <trkpt lat="47.33431" lon="6.06081">
        <ele>307</ele>
        <time>2025-06-26T12:53:19Z</time>
      </trkpt>
      <trkpt lat="47.33418" lon="6.0609">
        <ele>308</ele>
        <time>2025-06-26T12:53:29Z</time>
      </trkpt>
      <trkpt lat="47.33406" lon="6.06098">
        <ele>311</ele>
        <time>2025-06-26T12:53:39Z</time>
      </trkpt>
      <trkpt lat="47.33393" lon="6.06108">
        <ele>311</ele>
        <time>2025-06-26T12:53:49Z</time>
      </trkpt>
      <trkpt lat="47.3338" lon="6.06117">
        <ele>313</ele>
        <time>2025-06-26T12:53:58Z</time>
      </trkpt>
      <trkpt lat="47.33367" lon="6.06128">
        <ele>313</ele>
        <time>2025-06-26T12:54:09Z</time>
      </trkpt>
      <trkpt lat="47.33356" lon="6.06142">
        <ele>314</ele>
        <time>2025-06-26T12:54:19Z</time>
      </trkpt>
      <trkpt lat="47.33347" lon="6.06158">
        <ele>315</ele>
        <time>2025-06-26T12:54:28Z</time>
      </trkpt>
      <trkpt lat="47.3334" lon="6.06174">
        <ele>315</ele>
        <time>2025-06-26T12:54:41Z</time>
      </trkpt>
      <trkpt lat="47.33329" lon="6.06187">
        <ele>317</ele>
        <time>2025-06-26T12:54:53Z</time>
      </trkpt>
      <trkpt lat="47.33319" lon="6.06202">
        <ele>317</ele>
        <time>2025-06-26T12:55:01Z</time>
      </trkpt>
      <trkpt lat="47.33309" lon="6.06216">
        <ele>314</ele>
        <time>2025-06-26T12:55:12Z</time>
      </trkpt>
      <trkpt lat="47.33296" lon="6.06222">
        <ele>316</ele>
        <time>2025-06-26T12:55:21Z</time>
      </trkpt>
      <trkpt lat="47.33282" lon="6.06223">
        <ele>315</ele>
        <time>2025-06-26T12:55:31Z</time>
      </trkpt>
      <trkpt lat="47.33269" lon="6.0623">
        <ele>317</ele>
        <time>2025-06-26T12:55:41Z</time>
      </trkpt>
      <trkpt lat="47.33255" lon="6.06234">
        <ele>316</ele>
        <time>2025-06-26T12:55:50Z</time>
      </trkpt>
      <trkpt lat="47.33242" lon="6.06237">
        <ele>310</ele>
        <time>2025-06-26T12:56:01Z</time>
      </trkpt>
      <trkpt lat="47.33229" lon="6.06242">
        <ele>313</ele>
        <time>2025-06-26T12:56:11Z</time>
      </trkpt>
      <trkpt lat="47.33215" lon="6.06244">
        <ele>312</ele>
        <time>2025-06-26T12:56:20Z</time>
      </trkpt>
      <trkpt lat="47.33228" lon="6.06239">
        <ele>313</ele>
        <time>2025-06-26T12:57:05Z</time>
      </trkpt>
      <trkpt lat="47.33241" lon="6.06235">
        <ele>315</ele>
        <time>2025-06-26T12:57:16Z</time>
      </trkpt>
      <trkpt lat="47.33255" lon="6.0623">
        <ele>315</ele>
        <time>2025-06-26T12:57:26Z</time>
      </trkpt>
      <trkpt lat="47.33269" lon="6.06228">
        <ele>315</ele>
        <time>2025-06-26T12:57:35Z</time>
      </trkpt>
      <trkpt lat="47.33283" lon="6.06232">
        <ele>314</ele>
        <time>2025-06-26T12:57:45Z</time>
      </trkpt>
      <trkpt lat="47.33292" lon="6.06247">
        <ele>318</ele>
        <time>2025-06-26T12:58:09Z</time>
      </trkpt>
      <trkpt lat="47.33297" lon="6.06266">
        <ele>320</ele>
        <time>2025-06-26T12:58:23Z</time>
      </trkpt>
      <trkpt lat="47.33299" lon="6.06286">
        <ele>318</ele>
        <time>2025-06-26T12:58:32Z</time>
      </trkpt>
      <trkpt lat="47.333" lon="6.06306">
        <ele>318</ele>
        <time>2025-06-26T12:58:42Z</time>
      </trkpt>
      <trkpt lat="47.33298" lon="6.06326">
        <ele>317</ele>
        <time>2025-06-26T12:58:52Z</time>
      </trkpt>
      <trkpt lat="47.33295" lon="6.06346">
        <ele>319</ele>
        <time>2025-06-26T12:59:02Z</time>
      </trkpt>
      <trkpt lat="47.33289" lon="6.06364">
        <ele>318</ele>
        <time>2025-06-26T12:59:11Z</time>
      </trkpt>
      <trkpt lat="47.33278" lon="6.06376">
        <ele>319</ele>
        <time>2025-06-26T12:59:21Z</time>
      </trkpt>
      <trkpt lat="47.33263" lon="6.06384">
        <ele>323</ele>
        <time>2025-06-26T12:59:33Z</time>
      </trkpt>
      <trkpt lat="47.33253" lon="6.06397">
        <ele>324</ele>
        <time>2025-06-26T12:59:44Z</time>
      </trkpt>
      <trkpt lat="47.3324" lon="6.06403">
        <ele>325</ele>
        <time>2025-06-26T12:59:52Z</time>
      </trkpt>
      <trkpt lat="47.33227" lon="6.0641">
        <ele>326</ele>
        <time>2025-06-26T13:00:02Z</time>
      </trkpt>
      <trkpt lat="47.33214" lon="6.06421">
        <ele>327</ele>
        <time>2025-06-26T13:00:13Z</time>
      </trkpt>
      <trkpt lat="47.332" lon="6.06429">
        <ele>329</ele>
        <time>2025-06-26T13:00:23Z</time>
      </trkpt>
      <trkpt lat="47.33187" lon="6.06437">
        <ele>332</ele>
        <time>2025-06-26T13:00:33Z</time>
      </trkpt>
      <trkpt lat="47.33177" lon="6.06456">
        <ele>334</ele>
        <time>2025-06-26T13:00:46Z</time>
      </trkpt>
      <trkpt lat="47.33169" lon="6.06472">
        <ele>337</ele>
        <time>2025-06-26T13:00:58Z</time>
      </trkpt>
      <trkpt lat="47.33157" lon="6.06487">
        <ele>339</ele>
        <time>2025-06-26T13:01:10Z</time>
      </trkpt>
      <trkpt lat="47.33145" lon="6.06499">
        <ele>341</ele>
        <time>2025-06-26T13:01:21Z</time>
      </trkpt>
      <trkpt lat="47.33134" lon="6.0651">
        <ele>343</ele>
        <time>2025-06-26T13:01:32Z</time>
      </trkpt>
      <trkpt lat="47.33124" lon="6.06524">
        <ele>344</ele>
        <time>2025-06-26T13:01:42Z</time>
      </trkpt>
      <trkpt lat="47.33116" lon="6.0654">
        <ele>344</ele>
        <time>2025-06-26T13:01:52Z</time>
      </trkpt>
      <trkpt lat="47.33106" lon="6.06555">
        <ele>346</ele>
        <time>2025-06-26T13:02:01Z</time>
      </trkpt>
      <trkpt lat="47.33092" lon="6.06564">
        <ele>347</ele>
        <time>2025-06-26T13:02:12Z</time>
      </trkpt>
      <trkpt lat="47.3308" lon="6.06571">
        <ele>348</ele>
        <time>2025-06-26T13:02:22Z</time>
      </trkpt>
      <trkpt lat="47.33067" lon="6.06578">
        <ele>348</ele>
        <time>2025-06-26T13:02:32Z</time>
      </trkpt>
      <trkpt lat="47.33055" lon="6.06589">
        <ele>350</ele>
        <time>2025-06-26T13:02:44Z</time>
      </trkpt>
      <trkpt lat="47.33043" lon="6.06599">
        <ele>352</ele>
        <time>2025-06-26T13:02:54Z</time>
      </trkpt>
      <trkpt lat="47.33029" lon="6.06603">
        <ele>351</ele>
        <time>2025-06-26T13:03:04Z</time>
      </trkpt>
      <trkpt lat="47.33016" lon="6.06605">
        <ele>353</ele>
        <time>2025-06-26T13:03:16Z</time>
      </trkpt>
      <trkpt lat="47.33006" lon="6.06623">
        <ele>354</ele>
        <time>2025-06-26T13:03:24Z</time>
      </trkpt>
      <trkpt lat="47.32994" lon="6.06633">
        <ele>356</ele>
        <time>2025-06-26T13:03:33Z</time>
      </trkpt>
      <trkpt lat="47.3298" lon="6.06632">
        <ele>359</ele>
        <time>2025-06-26T13:03:43Z</time>
      </trkpt>
      <trkpt lat="47.32968" lon="6.06625">
        <ele>361</ele>
        <time>2025-06-26T13:03:53Z</time>
      </trkpt>
      <trkpt lat="47.32954" lon="6.06625">
        <ele>363</ele>
        <time>2025-06-26T13:04:04Z</time>
      </trkpt>
      <trkpt lat="47.32941" lon="6.06632">
        <ele>365</ele>
        <time>2025-06-26T13:04:14Z</time>
      </trkpt>
      <trkpt lat="47.32927" lon="6.06631">
        <ele>368</ele>
        <time>2025-06-26T13:04:24Z</time>
      </trkpt>
      <trkpt lat="47.32914" lon="6.06631">
        <ele>371</ele>
        <time>2025-06-26T13:04:38Z</time>
      </trkpt>
      <trkpt lat="47.329" lon="6.0663">
        <ele>372</ele>
        <time>2025-06-26T13:04:48Z</time>
      </trkpt>
      <trkpt lat="47.32887" lon="6.06625">
        <ele>376</ele>
        <time>2025-06-26T13:04:59Z</time>
      </trkpt>
      <trkpt lat="47.32873" lon="6.06626">
        <ele>379</ele>
        <time>2025-06-26T13:05:11Z</time>
      </trkpt>
      <trkpt lat="47.3286" lon="6.06631">
        <ele>383</ele>
        <time>2025-06-26T13:05:24Z</time>
      </trkpt>
      <trkpt lat="47.32849" lon="6.06644">
        <ele>385</ele>
        <time>2025-06-26T13:05:35Z</time>
      </trkpt>
      <trkpt lat="47.32836" lon="6.0665">
        <ele>387</ele>
        <time>2025-06-26T13:05:46Z</time>
      </trkpt>
      <trkpt lat="47.32826" lon="6.06664">
        <ele>390</ele>
        <time>2025-06-26T13:05:59Z</time>
      </trkpt>
      <trkpt lat="47.32812" lon="6.0667">
        <ele>392</ele>
        <time>2025-06-26T13:06:12Z</time>
      </trkpt>
      <trkpt lat="47.32798" lon="6.06671">
        <ele>395</ele>
        <time>2025-06-26T13:06:23Z</time>
      </trkpt>
      <trkpt lat="47.32784" lon="6.06674">
        <ele>397</ele>
        <time>2025-06-26T13:06:34Z</time>
      </trkpt>
      <trkpt lat="47.32771" lon="6.06667">
        <ele>399</ele>
        <time>2025-06-26T13:06:46Z</time>
      </trkpt>
      <trkpt lat="47.3276" lon="6.06655">
        <ele>403</ele>
        <time>2025-06-26T13:06:59Z</time>
      </trkpt>
      <trkpt lat="47.32746" lon="6.06653">
        <ele>405</ele>
        <time>2025-06-26T13:07:11Z</time>
      </trkpt>
      <trkpt lat="47.32731" lon="6.06648">
        <ele>408</ele>
        <time>2025-06-26T13:07:25Z</time>
      </trkpt>
      <trkpt lat="47.32718" lon="6.06648">
        <ele>411</ele>
        <time>2025-06-26T13:07:38Z</time>
      </trkpt>
      <trkpt lat="47.32704" lon="6.0665">
        <ele>413</ele>
        <time>2025-06-26T13:07:51Z</time>
      </trkpt>
      <trkpt lat="47.32689" lon="6.0665">
        <ele>416</ele>
        <time>2025-06-26T13:08:04Z</time>
      </trkpt>
      <trkpt lat="47.32676" lon="6.06658">
        <ele>421</ele>
        <time>2025-06-26T13:08:18Z</time>
      </trkpt>
      <trkpt lat="47.32663" lon="6.06665">
        <ele>423</ele>
        <time>2025-06-26T13:08:32Z</time>
      </trkpt>
      <trkpt lat="47.3265" lon="6.0667">
        <ele>424</ele>
        <time>2025-06-26T13:08:46Z</time>
      </trkpt>
      <trkpt lat="47.32636" lon="6.06668">
        <ele>430</ele>
        <time>2025-06-26T13:09:00Z</time>
      </trkpt>
      <trkpt lat="47.32622" lon="6.06664">
        <ele>431</ele>
        <time>2025-06-26T13:09:14Z</time>
      </trkpt>
      <trkpt lat="47.3261" lon="6.06654">
        <ele>436</ele>
        <time>2025-06-26T13:09:33Z</time>
      </trkpt>
      <trkpt lat="47.32599" lon="6.06643">
        <ele>437</ele>
        <time>2025-06-26T13:09:50Z</time>
      </trkpt>
      <trkpt lat="47.32586" lon="6.06651">
        <ele>442</ele>
        <time>2025-06-26T13:10:05Z</time>
      </trkpt>
      <trkpt lat="47.32581" lon="6.06672">
        <ele>445</ele>
        <time>2025-06-26T13:10:31Z</time>
      </trkpt>
      <trkpt lat="47.32573" lon="6.06689">
        <ele>454</ele>
        <time>2025-06-26T13:10:46Z</time>
      </trkpt>
      <trkpt lat="47.32558" lon="6.06689">
        <ele>453</ele>
        <time>2025-06-26T13:11:04Z</time>
      </trkpt>
      <trkpt lat="47.32545" lon="6.0668">
        <ele>459</ele>
        <time>2025-06-26T13:11:20Z</time>
      </trkpt>
      <trkpt lat="47.32532" lon="6.06672">
        <ele>460</ele>
        <time>2025-06-26T13:11:33Z</time>
      </trkpt>
      <trkpt lat="47.32519" lon="6.06666">
        <ele>463</ele>
        <time>2025-06-26T13:11:46Z</time>
      </trkpt>
      <trkpt lat="47.32507" lon="6.06658">
        <ele>466</ele>
        <time>2025-06-26T13:11:58Z</time>
      </trkpt>
      <trkpt lat="47.32493" lon="6.06658">
        <ele>467</ele>
        <time>2025-06-26T13:12:13Z</time>
      </trkpt>
      <trkpt lat="47.3248" lon="6.06651">
        <ele>471</ele>
        <time>2025-06-26T13:12:24Z</time>
      </trkpt>
      <trkpt lat="47.32467" lon="6.06642">
        <ele>475</ele>
        <time>2025-06-26T13:12:38Z</time>
      </trkpt>
      <trkpt lat="47.32455" lon="6.06632">
        <ele>477</ele>
        <time>2025-06-26T13:12:51Z</time>
      </trkpt>
      <trkpt lat="47.32444" lon="6.06643">
        <ele>480</ele>
        <time>2025-06-26T13:13:16Z</time>
      </trkpt>
      <trkpt lat="47.32433" lon="6.06654">
        <ele>487</ele>
        <time>2025-06-26T13:13:32Z</time>
      </trkpt>
      <trkpt lat="47.32423" lon="6.06669">
        <ele>489</ele>
        <time>2025-06-26T13:13:48Z</time>
      </trkpt>
      <trkpt lat="47.32409" lon="6.06671">
        <ele>495</ele>
        <time>2025-06-26T13:14:01Z</time>
      </trkpt>
      <trkpt lat="47.32396" lon="6.06671">
        <ele>493</ele>
        <time>2025-06-26T13:14:15Z</time>
      </trkpt>
      <trkpt lat="47.3239" lon="6.0669">
        <ele>496</ele>
        <time>2025-06-26T13:14:42Z</time>
      </trkpt>
      <trkpt lat="47.32386" lon="6.0671">
        <ele>498</ele>
        <time>2025-06-26T13:14:54Z</time>
      </trkpt>
      <trkpt lat="47.32386" lon="6.0673">
        <ele>503</ele>
        <time>2025-06-26T13:15:14Z</time>
      </trkpt>
      <trkpt lat="47.32376" lon="6.06744">
        <ele>508</ele>
        <time>2025-06-26T13:15:35Z</time>
      </trkpt>
      <trkpt lat="47.32384" lon="6.0676">
        <ele>510</ele>
        <time>2025-06-26T13:16:46Z</time>
      </trkpt>
      <trkpt lat="47.32386" lon="6.0678">
        <ele>512</ele>
        <time>2025-06-26T13:17:11Z</time>
      </trkpt>
      <trkpt lat="47.32389" lon="6.068">
        <ele>511</ele>
        <time>2025-06-26T13:17:21Z</time>
      </trkpt>
      <trkpt lat="47.32393" lon="6.0682">
        <ele>512</ele>
        <time>2025-06-26T13:17:31Z</time>
      </trkpt>
      <trkpt lat="47.32384" lon="6.06836">
        <ele>513</ele>
        <time>2025-06-26T13:17:45Z</time>
      </trkpt>
      <trkpt lat="47.32382" lon="6.06857">
        <ele>513</ele>
        <time>2025-06-26T13:18:02Z</time>
      </trkpt>
      <trkpt lat="47.32382" lon="6.06877">
        <ele>516</ele>
        <time>2025-06-26T13:18:17Z</time>
      </trkpt>
      <trkpt lat="47.32378" lon="6.06858">
        <ele>517</ele>
        <time>2025-06-26T13:18:42Z</time>
      </trkpt>
      <trkpt lat="47.32383" lon="6.06839">
        <ele>515</ele>
        <time>2025-06-26T13:19:12Z</time>
      </trkpt>
      <trkpt lat="47.32395" lon="6.06831">
        <ele>513</ele>
        <time>2025-06-26T13:19:26Z</time>
      </trkpt>
      <trkpt lat="47.32399" lon="6.06853">
        <ele>514</ele>
        <time>2025-06-26T13:19:41Z</time>
      </trkpt>
      <trkpt lat="47.32405" lon="6.06872">
        <ele>516</ele>
        <time>2025-06-26T13:19:53Z</time>
      </trkpt>
      <trkpt lat="47.32416" lon="6.06885">
        <ele>516</ele>
        <time>2025-06-26T13:20:07Z</time>
      </trkpt>
      <trkpt lat="47.3241" lon="6.06904">
        <ele>515</ele>
        <time>2025-06-26T13:20:24Z</time>
      </trkpt>
      <trkpt lat="47.32415" lon="6.06923">
        <ele>515</ele>
        <time>2025-06-26T13:20:35Z</time>
      </trkpt>
      <trkpt lat="47.32418" lon="6.06943">
        <ele>515</ele>
        <time>2025-06-26T13:20:52Z</time>
      </trkpt>
      <trkpt lat="47.32413" lon="6.06924">
        <ele>515</ele>
        <time>2025-06-26T13:21:13Z</time>
      </trkpt>
      <trkpt lat="47.32426" lon="6.06922">
        <ele>515</ele>
        <time>2025-06-26T13:21:37Z</time>
      </trkpt>
      <trkpt lat="47.32437" lon="6.06933">
        <ele>516</ele>
        <time>2025-06-26T13:21:49Z</time>
      </trkpt>
      <trkpt lat="47.32438" lon="6.06954">
        <ele>513</ele>
        <time>2025-06-26T13:22:05Z</time>
      </trkpt>
      <trkpt lat="47.32435" lon="6.06974">
        <ele>512</ele>
        <time>2025-06-26T13:22:25Z</time>
      </trkpt>
      <trkpt lat="47.3243" lon="6.06993">
        <ele>509</ele>
        <time>2025-06-26T13:23:45Z</time>
      </trkpt>
      <trkpt lat="47.32429" lon="6.07012">
        <ele>508</ele>
        <time>2025-06-26T13:24:22Z</time>
      </trkpt>
      <trkpt lat="47.32417" lon="6.07003">
        <ele>511</ele>
        <time>2025-06-26T13:25:04Z</time>
      </trkpt>
      <trkpt lat="47.32406" lon="6.06992">
        <ele>516</ele>
        <time>2025-06-26T13:25:28Z</time>
      </trkpt>
      <trkpt lat="47.32393" lon="6.06986">
        <ele>520</ele>
        <time>2025-06-26T13:25:59Z</time>
      </trkpt>
      <trkpt lat="47.3238" lon="6.06979">
        <ele>523</ele>
        <time>2025-06-26T13:27:21Z</time>
      </trkpt>
      <trkpt lat="47.32367" lon="6.06974">
        <ele>528</ele>
        <time>2025-06-26T13:28:07Z</time>
      </trkpt>
      <trkpt lat="47.32353" lon="6.0697">
        <ele>531</ele>
        <time>2025-06-26T13:29:39Z</time>
      </trkpt>
      <trkpt lat="47.32367" lon="6.06976">
        <ele>527</ele>
        <time>2025-06-26T13:30:10Z</time>
      </trkpt>
      <trkpt lat="47.32355" lon="6.06968">
        <ele>530</ele>
        <time>2025-06-26T13:31:13Z</time>
      </trkpt>
      <trkpt lat="47.32344" lon="6.06955">
        <ele>535</ele>
        <time>2025-06-26T13:31:30Z</time>
      </trkpt>
      <trkpt lat="47.32331" lon="6.06951">
        <ele>541</ele>
        <time>2025-06-26T13:32:02Z</time>
      </trkpt>
      <trkpt lat="47.32321" lon="6.06938">
        <ele>543</ele>
        <time>2025-06-26T13:32:29Z</time>
      </trkpt>
      <trkpt lat="47.32309" lon="6.06927">
        <ele>545</ele>
        <time>2025-06-26T13:32:42Z</time>
      </trkpt>
      <trkpt lat="47.32298" lon="6.06915">
        <ele>550</ele>
        <time>2025-06-26T13:33:41Z</time>
      </trkpt>
      <trkpt lat="47.32286" lon="6.06906">
        <ele>553</ele>
        <time>2025-06-26T13:34:06Z</time>
      </trkpt>
      <trkpt lat="47.32277" lon="6.06891">
        <ele>558</ele>
        <time>2025-06-26T13:34:25Z</time>
      </trkpt>
      <trkpt lat="47.32273" lon="6.06872">
        <ele>562</ele>
        <time>2025-06-26T13:34:43Z</time>
      </trkpt>
      <trkpt lat="47.32264" lon="6.06856">
        <ele>565</ele>
        <time>2025-06-26T13:34:59Z</time>
      </trkpt>
      <trkpt lat="47.32254" lon="6.06844">
        <ele>568</ele>
        <time>2025-06-26T13:35:12Z</time>
      </trkpt>
      <trkpt lat="47.32243" lon="6.06831">
        <ele>575</ele>
        <time>2025-06-26T13:35:53Z</time>
      </trkpt>
      <trkpt lat="47.32237" lon="6.06814">
        <ele>578</ele>
        <time>2025-06-26T13:36:51Z</time>
      </trkpt>
      <trkpt lat="47.32227" lon="6.06799">
        <ele>582</ele>
        <time>2025-06-26T13:37:07Z</time>
      </trkpt>
      <trkpt lat="47.32225" lon="6.06779">
        <ele>590</ele>
        <time>2025-06-26T13:37:44Z</time>
      </trkpt>
      <trkpt lat="47.32217" lon="6.06762">
        <ele>593</ele>
        <time>2025-06-26T13:37:56Z</time>
      </trkpt>
      <trkpt lat="47.32206" lon="6.0675">
        <ele>596</ele>
        <time>2025-06-26T13:38:07Z</time>
      </trkpt>
      <trkpt lat="47.32192" lon="6.06748">
        <ele>599</ele>
        <time>2025-06-26T13:38:16Z</time>
      </trkpt>
      <trkpt lat="47.3218" lon="6.0674">
        <ele>605</ele>
        <time>2025-06-26T13:38:59Z</time>
      </trkpt>
      <trkpt lat="47.3217" lon="6.06726">
        <ele>612</ele>
        <time>2025-06-26T13:39:18Z</time>
      </trkpt>
      <trkpt lat="47.3216" lon="6.06713">
        <ele>616</ele>
        <time>2025-06-26T13:39:35Z</time>
      </trkpt>
      <trkpt lat="47.32149" lon="6.06701">
        <ele>621</ele>
        <time>2025-06-26T13:40:00Z</time>
      </trkpt>
      <trkpt lat="47.32136" lon="6.0669">
        <ele>628</ele>
        <time>2025-06-26T13:40:24Z</time>
      </trkpt>
      <trkpt lat="47.32123" lon="6.06691">
        <ele>631</ele>
        <time>2025-06-26T13:40:43Z</time>
      </trkpt>
      <trkpt lat="47.32117" lon="6.06672">
        <ele>635</ele>
        <time>2025-06-26T13:40:58Z</time>
      </trkpt>
      <trkpt lat="47.32105" lon="6.06664">
        <ele>639</ele>
        <time>2025-06-26T13:41:35Z</time>
      </trkpt>
      <trkpt lat="47.32091" lon="6.06667">
        <ele>640</ele>
        <time>2025-06-26T13:42:26Z</time>
      </trkpt>
      <trkpt lat="47.32078" lon="6.06674">
        <ele>640</ele>
        <time>2025-06-26T13:43:40Z</time>
      </trkpt>
      <trkpt lat="47.32077" lon="6.06654">
        <ele>642</ele>
        <time>2025-06-26T13:44:27Z</time>
      </trkpt>
      <trkpt lat="47.32068" lon="6.06639">
        <ele>642</ele>
        <time>2025-06-26T13:44:56Z</time>
      </trkpt>
      <trkpt lat="47.32056" lon="6.0663">
        <ele>644</ele>
        <time>2025-06-26T13:45:46Z</time>
      </trkpt>
      <trkpt lat="47.32042" lon="6.06624">
        <ele>644</ele>
        <time>2025-06-26T13:46:18Z</time>
      </trkpt>
      <trkpt lat="47.32029" lon="6.06616">
        <ele>644</ele>
        <time>2025-06-26T13:46:36Z</time>
      </trkpt>
      <trkpt lat="47.32017" lon="6.06606">
        <ele>645</ele>
        <time>2025-06-26T13:49:46Z</time>
      </trkpt>
      <trkpt lat="47.32005" lon="6.06596">
        <ele>644</ele>
        <time>2025-06-26T13:50:06Z</time>
      </trkpt>
      <trkpt lat="47.31994" lon="6.06583">
        <ele>645</ele>
        <time>2025-06-26T13:50:44Z</time>
      </trkpt>
      <trkpt lat="47.31988" lon="6.06564">
        <ele>645</ele>
        <time>2025-06-26T13:50:55Z</time>
      </trkpt>
      <trkpt lat="47.31984" lon="6.06544">
        <ele>646</ele>
        <time>2025-06-26T13:51:06Z</time>
      </trkpt>
      <trkpt lat="47.31982" lon="6.06523">
        <ele>646</ele>
        <time>2025-06-26T13:51:17Z</time>
      </trkpt>
      <trkpt lat="47.31976" lon="6.06505">
        <ele>647</ele>
        <time>2025-06-26T13:51:29Z</time>
      </trkpt>
      <trkpt lat="47.31972" lon="6.06485">
        <ele>647</ele>
        <time>2025-06-26T13:51:40Z</time>
      </trkpt>
      <trkpt lat="47.31961" lon="6.06471">
        <ele>648</ele>
        <time>2025-06-26T13:51:52Z</time>
      </trkpt>
      <trkpt lat="47.31947" lon="6.06458">
        <ele>648</ele>
        <time>2025-06-26T13:52:16Z</time>
      </trkpt>
      <trkpt lat="47.31934" lon="6.06452">
        <ele>648</ele>
        <time>2025-06-26T13:52:26Z</time>
      </trkpt>
      <trkpt lat="47.31922" lon="6.06443">
        <ele>646</ele>
        <time>2025-06-26T13:52:37Z</time>
      </trkpt>
      <trkpt lat="47.31909" lon="6.06436">
        <ele>647</ele>
        <time>2025-06-26T13:52:49Z</time>
      </trkpt>
      <trkpt lat="47.31899" lon="6.06422">
        <ele>647</ele>
        <time>2025-06-26T13:53:00Z</time>
      </trkpt>
      <trkpt lat="47.31893" lon="6.06404">
        <ele>647</ele>
        <time>2025-06-26T13:53:11Z</time>
      </trkpt>
      <trkpt lat="47.31883" lon="6.0639">
        <ele>650</ele>
        <time>2025-06-26T13:53:22Z</time>
      </trkpt>
      <trkpt lat="47.31871" lon="6.06381">
        <ele>650</ele>
        <time>2025-06-26T13:53:36Z</time>
      </trkpt>
      <trkpt lat="47.31859" lon="6.06368">
        <ele>649</ele>
        <time>2025-06-26T13:53:47Z</time>
      </trkpt>
      <trkpt lat="47.3185" lon="6.06351">
        <ele>649</ele>
        <time>2025-06-26T13:53:58Z</time>
      </trkpt>
      <trkpt lat="47.31844" lon="6.06332">
        <ele>648</ele>
        <time>2025-06-26T13:54:08Z</time>
      </trkpt>
      <trkpt lat="47.31835" lon="6.06318">
        <ele>647</ele>
        <time>2025-06-26T13:54:17Z</time>
      </trkpt>
      <trkpt lat="47.31824" lon="6.06305">
        <ele>647</ele>
        <time>2025-06-26T13:54:27Z</time>
      </trkpt>
      <trkpt lat="47.31814" lon="6.0629">
        <ele>645</ele>
        <time>2025-06-26T13:54:39Z</time>
      </trkpt>
      <trkpt lat="47.31804" lon="6.06273">
        <ele>646</ele>
        <time>2025-06-26T13:54:49Z</time>
      </trkpt>
      <trkpt lat="47.31797" lon="6.06255">
        <ele>646</ele>
        <time>2025-06-26T13:55:00Z</time>
      </trkpt>
      <trkpt lat="47.31796" lon="6.06235">
        <ele>647</ele>
        <time>2025-06-26T13:55:10Z</time>
      </trkpt>
      <trkpt lat="47.31794" lon="6.06214">
        <ele>648</ele>
        <time>2025-06-26T13:55:20Z</time>
      </trkpt>
      <trkpt lat="47.31793" lon="6.06193">
        <ele>648</ele>
        <time>2025-06-26T13:55:31Z</time>
      </trkpt>
      <trkpt lat="47.31792" lon="6.06173">
        <ele>648</ele>
        <time>2025-06-26T13:55:41Z</time>
      </trkpt>
      <trkpt lat="47.3179" lon="6.06153">
        <ele>650</ele>
        <time>2025-06-26T13:56:00Z</time>
      </trkpt>
      <trkpt lat="47.31789" lon="6.06133">
        <ele>649</ele>
        <time>2025-06-26T13:56:10Z</time>
      </trkpt>
      <trkpt lat="47.31786" lon="6.06113">
        <ele>651</ele>
        <time>2025-06-26T13:56:20Z</time>
      </trkpt>
      <trkpt lat="47.31786" lon="6.06093">
        <ele>652</ele>
        <time>2025-06-26T13:56:29Z</time>
      </trkpt>
      <trkpt lat="47.31794" lon="6.06075">
        <ele>653</ele>
        <time>2025-06-26T13:56:38Z</time>
      </trkpt>
      <trkpt lat="47.31804" lon="6.06062">
        <ele>651</ele>
        <time>2025-06-26T13:56:49Z</time>
      </trkpt>
      <trkpt lat="47.31814" lon="6.06049">
        <ele>649</ele>
        <time>2025-06-26T13:56:59Z</time>
      </trkpt>
      <trkpt lat="47.31826" lon="6.06037">
        <ele>651</ele>
        <time>2025-06-26T13:57:10Z</time>
      </trkpt>
      <trkpt lat="47.31838" lon="6.06026">
        <ele>650</ele>
        <time>2025-06-26T13:57:20Z</time>
      </trkpt>
      <trkpt lat="47.31848" lon="6.06013">
        <ele>646</ele>
        <time>2025-06-26T13:57:31Z</time>
      </trkpt>
      <trkpt lat="47.3186" lon="6.06003">
        <ele>649</ele>
        <time>2025-06-26T13:57:42Z</time>
      </trkpt>
      <trkpt lat="47.31874" lon="6.05996">
        <ele>648</ele>
        <time>2025-06-26T13:57:53Z</time>
      </trkpt>
      <trkpt lat="47.31876" lon="6.05975">
        <ele>650</ele>
        <time>2025-06-26T13:58:39Z</time>
      </trkpt>
      <trkpt lat="47.31876" lon="6.05996">
        <ele>648</ele>
        <time>2025-06-26T14:08:27Z</time>
      </trkpt>
      <trkpt lat="47.31874" lon="6.05974">
        <ele>647</ele>
        <time>2025-06-26T14:11:46Z</time>
      </trkpt>
      <trkpt lat="47.31882" lon="6.05956">
        <ele>645</ele>
        <time>2025-06-26T14:11:59Z</time>
      </trkpt>
      <trkpt lat="47.31872" lon="6.05971">
        <ele>645</ele>
        <time>2025-06-26T14:12:46Z</time>
      </trkpt>
      <trkpt lat="47.31858" lon="6.05972">
        <ele>646</ele>
        <time>2025-06-26T14:12:55Z</time>
      </trkpt>
      <trkpt lat="47.31849" lon="6.05959">
        <ele>645</ele>
        <time>2025-06-26T14:13:08Z</time>
      </trkpt>
      <trkpt lat="47.31842" lon="6.05941">
        <ele>644</ele>
        <time>2025-06-26T14:13:19Z</time>
      </trkpt>
      <trkpt lat="47.31833" lon="6.05925">
        <ele>645</ele>
        <time>2025-06-26T14:13:29Z</time>
      </trkpt>
      <trkpt lat="47.31819" lon="6.05916">
        <ele>643</ele>
        <time>2025-06-26T14:13:42Z</time>
      </trkpt>
      <trkpt lat="47.31805" lon="6.05911">
        <ele>640</ele>
        <time>2025-06-26T14:13:53Z</time>
      </trkpt>
      <trkpt lat="47.31793" lon="6.05904">
        <ele>642</ele>
        <time>2025-06-26T14:14:03Z</time>
      </trkpt>
      <trkpt lat="47.3178" lon="6.05896">
        <ele>640</ele>
        <time>2025-06-26T14:14:14Z</time>
      </trkpt>
      <trkpt lat="47.31769" lon="6.05882">
        <ele>640</ele>
        <time>2025-06-26T14:14:24Z</time>
      </trkpt>
      <trkpt lat="47.31759" lon="6.05868">
        <ele>639</ele>
        <time>2025-06-26T14:14:34Z</time>
      </trkpt>
      <trkpt lat="47.31751" lon="6.05852">
        <ele>639</ele>
        <time>2025-06-26T14:14:44Z</time>
      </trkpt>
      <trkpt lat="47.31737" lon="6.05846">
        <ele>641</ele>
        <time>2025-06-26T14:15:25Z</time>
      </trkpt>
      <trkpt lat="47.31724" lon="6.05847">
        <ele>640</ele>
        <time>2025-06-26T14:15:37Z</time>
      </trkpt>
      <trkpt lat="47.3171" lon="6.05841">
        <ele>635</ele>
        <time>2025-06-26T14:15:48Z</time>
      </trkpt>
      <trkpt lat="47.31696" lon="6.05837">
        <ele>635</ele>
        <time>2025-06-26T14:15:58Z</time>
      </trkpt>
      <trkpt lat="47.31683" lon="6.05835">
        <ele>634</ele>
        <time>2025-06-26T14:16:51Z</time>
      </trkpt>
      <trkpt lat="47.31666" lon="6.05829">
        <ele>632</ele>
        <time>2025-06-26T14:17:01Z</time>
      </trkpt>
      <trkpt lat="47.31653" lon="6.05824">
        <ele>630</ele>
        <time>2025-06-26T14:17:06Z</time>
      </trkpt>
      <trkpt lat="47.3164" lon="6.05819">
        <ele>629</ele>
        <time>2025-06-26T14:17:12Z</time>
      </trkpt>
      <trkpt lat="47.31627" lon="6.05816">
        <ele>628</ele>
        <time>2025-06-26T14:17:17Z</time>
      </trkpt>
      <trkpt lat="47.31609" lon="6.05809">
        <ele>627</ele>
        <time>2025-06-26T14:17:21Z</time>
      </trkpt>
      <trkpt lat="47.31597" lon="6.05801">
        <ele>626</ele>
        <time>2025-06-26T14:17:25Z</time>
      </trkpt>
      <trkpt lat="47.31582" lon="6.05804">
        <ele>623</ele>
        <time>2025-06-26T14:17:31Z</time>
      </trkpt>
      <trkpt lat="47.31567" lon="6.05809">
        <ele>622</ele>
        <time>2025-06-26T14:17:36Z</time>
      </trkpt>
      <trkpt lat="47.31553" lon="6.05809">
        <ele>619</ele>
        <time>2025-06-26T14:17:41Z</time>
      </trkpt>
      <trkpt lat="47.31542" lon="6.05796">
        <ele>617</ele>
        <time>2025-06-26T14:17:46Z</time>
      </trkpt>
      <trkpt lat="47.31532" lon="6.05783">
        <ele>616</ele>
        <time>2025-06-26T14:17:51Z</time>
      </trkpt>
      <trkpt lat="47.31522" lon="6.05771">
        <ele>615</ele>
        <time>2025-06-26T14:17:56Z</time>
      </trkpt>
      <trkpt lat="47.31508" lon="6.05758">
        <ele>614</ele>
        <time>2025-06-26T14:18:01Z</time>
      </trkpt>
      <trkpt lat="47.31494" lon="6.05745">
        <ele>612</ele>
        <time>2025-06-26T14:18:06Z</time>
      </trkpt>
      <trkpt lat="47.31481" lon="6.05735">
        <ele>610</ele>
        <time>2025-06-26T14:18:10Z</time>
      </trkpt>
      <trkpt lat="47.31467" lon="6.05731">
        <ele>608</ele>
        <time>2025-06-26T14:18:15Z</time>
      </trkpt>
      <trkpt lat="47.31453" lon="6.0573">
        <ele>604</ele>
        <time>2025-06-26T14:18:20Z</time>
      </trkpt>
      <trkpt lat="47.3144" lon="6.05734">
        <ele>602</ele>
        <time>2025-06-26T14:18:25Z</time>
      </trkpt>
      <trkpt lat="47.31426" lon="6.05734">
        <ele>599</ele>
        <time>2025-06-26T14:18:31Z</time>
      </trkpt>
      <trkpt lat="47.31412" lon="6.0573">
        <ele>595</ele>
        <time>2025-06-26T14:18:36Z</time>
      </trkpt>
      <trkpt lat="47.31399" lon="6.05729">
        <ele>592</ele>
        <time>2025-06-26T14:18:42Z</time>
      </trkpt>
      <trkpt lat="47.31385" lon="6.05727">
        <ele>590</ele>
        <time>2025-06-26T14:18:47Z</time>
      </trkpt>
      <trkpt lat="47.31371" lon="6.05724">
        <ele>586</ele>
        <time>2025-06-26T14:18:52Z</time>
      </trkpt>
      <trkpt lat="47.31357" lon="6.05718">
        <ele>583</ele>
        <time>2025-06-26T14:18:56Z</time>
      </trkpt>
      <trkpt lat="47.31345" lon="6.05709">
        <ele>581</ele>
        <time>2025-06-26T14:19:01Z</time>
      </trkpt>
      <trkpt lat="47.31332" lon="6.05698">
        <ele>578</ele>
        <time>2025-06-26T14:19:07Z</time>
      </trkpt>
      <trkpt lat="47.31318" lon="6.05693">
        <ele>576</ele>
        <time>2025-06-26T14:19:12Z</time>
      </trkpt>
      <trkpt lat="47.31304" lon="6.0569">
        <ele>573</ele>
        <time>2025-06-26T14:19:17Z</time>
      </trkpt>
      <trkpt lat="47.3129" lon="6.05686">
        <ele>569</ele>
        <time>2025-06-26T14:19:22Z</time>
      </trkpt>
      <trkpt lat="47.31276" lon="6.05684">
        <ele>566</ele>
        <time>2025-06-26T14:19:28Z</time>
      </trkpt>
      <trkpt lat="47.31262" lon="6.05688">
        <ele>563</ele>
        <time>2025-06-26T14:19:33Z</time>
      </trkpt>
      <trkpt lat="47.31248" lon="6.05687">
        <ele>559</ele>
        <time>2025-06-26T14:19:38Z</time>
      </trkpt>
      <trkpt lat="47.31235" lon="6.05683">
        <ele>557</ele>
        <time>2025-06-26T14:19:44Z</time>
      </trkpt>
      <trkpt lat="47.3122" lon="6.05681">
        <ele>553</ele>
        <time>2025-06-26T14:19:49Z</time>
      </trkpt>
      <trkpt lat="47.31207" lon="6.0567">
        <ele>550</ele>
        <time>2025-06-26T14:19:54Z</time>
      </trkpt>
      <trkpt lat="47.31197" lon="6.05656">
        <ele>547</ele>
        <time>2025-06-26T14:19:59Z</time>
      </trkpt>
      <trkpt lat="47.31186" lon="6.05643">
        <ele>546</ele>
        <time>2025-06-26T14:20:04Z</time>
      </trkpt>
      <trkpt lat="47.31173" lon="6.05631">
        <ele>544</ele>
        <time>2025-06-26T14:20:09Z</time>
      </trkpt>
      <trkpt lat="47.31157" lon="6.05629">
        <ele>542</ele>
        <time>2025-06-26T14:20:14Z</time>
      </trkpt>
      <trkpt lat="47.31143" lon="6.05635">
        <ele>536</ele>
        <time>2025-06-26T14:20:21Z</time>
      </trkpt>
      <trkpt lat="47.3113" lon="6.05631">
        <ele>534</ele>
        <time>2025-06-26T14:20:25Z</time>
      </trkpt>
      <trkpt lat="47.31116" lon="6.05625">
        <ele>530</ele>
        <time>2025-06-26T14:20:30Z</time>
      </trkpt>
      <trkpt lat="47.31102" lon="6.05622">
        <ele>528</ele>
        <time>2025-06-26T14:20:34Z</time>
      </trkpt>
      <trkpt lat="47.31087" lon="6.05622">
        <ele>525</ele>
        <time>2025-06-26T14:20:39Z</time>
      </trkpt>
      <trkpt lat="47.31074" lon="6.05613">
        <ele>523</ele>
        <time>2025-06-26T14:20:44Z</time>
      </trkpt>
      <trkpt lat="47.31061" lon="6.056">
        <ele>519</ele>
        <time>2025-06-26T14:20:50Z</time>
      </trkpt>
      <trkpt lat="47.31046" lon="6.05592">
        <ele>517</ele>
        <time>2025-06-26T14:20:55Z</time>
      </trkpt>
      <trkpt lat="47.31031" lon="6.05585">
        <ele>514</ele>
        <time>2025-06-26T14:21:00Z</time>
      </trkpt>
      <trkpt lat="47.31017" lon="6.05583">
        <ele>512</ele>
        <time>2025-06-26T14:21:05Z</time>
      </trkpt>
      <trkpt lat="47.31002" lon="6.0558">
        <ele>510</ele>
        <time>2025-06-26T14:21:10Z</time>
      </trkpt>
      <trkpt lat="47.30988" lon="6.05576">
        <ele>507</ele>
        <time>2025-06-26T14:21:14Z</time>
      </trkpt>
      <trkpt lat="47.30974" lon="6.05569">
        <ele>505</ele>
        <time>2025-06-26T14:21:19Z</time>
      </trkpt>
      <trkpt lat="47.30961" lon="6.05559">
        <ele>500</ele>
        <time>2025-06-26T14:21:23Z</time>
      </trkpt>
      <trkpt lat="47.30948" lon="6.05552">
        <ele>499</ele>
        <time>2025-06-26T14:21:29Z</time>
      </trkpt>
      <trkpt lat="47.30934" lon="6.05546">
        <ele>496</ele>
        <time>2025-06-26T14:21:34Z</time>
      </trkpt>
      <trkpt lat="47.30919" lon="6.05543">
        <ele>495</ele>
        <time>2025-06-26T14:21:39Z</time>
      </trkpt>
      <trkpt lat="47.30904" lon="6.05535">
        <ele>492</ele>
        <time>2025-06-26T14:21:44Z</time>
      </trkpt>
      <trkpt lat="47.30892" lon="6.05529">
        <ele>490</ele>
        <time>2025-06-26T14:21:48Z</time>
      </trkpt>
      <trkpt lat="47.30878" lon="6.05524">
        <ele>487</ele>
        <time>2025-06-26T14:21:53Z</time>
      </trkpt>
      <trkpt lat="47.30867" lon="6.05512">
        <ele>485</ele>
        <time>2025-06-26T14:21:58Z</time>
      </trkpt>
      <trkpt lat="47.30854" lon="6.05505">
        <ele>482</ele>
        <time>2025-06-26T14:22:09Z</time>
      </trkpt>
      <trkpt lat="47.30838" lon="6.05498">
        <ele>479</ele>
        <time>2025-06-26T14:22:21Z</time>
      </trkpt>
      <trkpt lat="47.30825" lon="6.0549">
        <ele>479</ele>
        <time>2025-06-26T14:22:50Z</time>
      </trkpt>
      <trkpt lat="47.30813" lon="6.05479">
        <ele>479</ele>
        <time>2025-06-26T14:22:59Z</time>
      </trkpt>
      <trkpt lat="47.30802" lon="6.05468">
        <ele>475</ele>
        <time>2025-06-26T14:23:08Z</time>
      </trkpt>
      <trkpt lat="47.30791" lon="6.05454">
        <ele>473</ele>
        <time>2025-06-26T14:23:21Z</time>
      </trkpt>
      <trkpt lat="47.30784" lon="6.05436">
        <ele>473</ele>
        <time>2025-06-26T14:23:30Z</time>
      </trkpt>
      <trkpt lat="47.30777" lon="6.05418">
        <ele>472</ele>
        <time>2025-06-26T14:23:39Z</time>
      </trkpt>
      <trkpt lat="47.30767" lon="6.05403">
        <ele>471</ele>
        <time>2025-06-26T14:23:48Z</time>
      </trkpt>
      <trkpt lat="47.30759" lon="6.05387">
        <ele>468</ele>
        <time>2025-06-26T14:23:58Z</time>
      </trkpt>
      <trkpt lat="47.30751" lon="6.0537">
        <ele>469</ele>
        <time>2025-06-26T14:24:07Z</time>
      </trkpt>
      <trkpt lat="47.30742" lon="6.05354">
        <ele>470</ele>
        <time>2025-06-26T14:24:18Z</time>
      </trkpt>
      <trkpt lat="47.30733" lon="6.05338">
        <ele>466</ele>
        <time>2025-06-26T14:24:28Z</time>
      </trkpt>
      <trkpt lat="47.30725" lon="6.05321">
        <ele>467</ele>
        <time>2025-06-26T14:24:37Z</time>
      </trkpt>
      <trkpt lat="47.30713" lon="6.0531">
        <ele>462</ele>
        <time>2025-06-26T14:24:45Z</time>
      </trkpt>
      <trkpt lat="47.30704" lon="6.05293">
        <ele>462</ele>
        <time>2025-06-26T14:24:55Z</time>
      </trkpt>
      <trkpt lat="47.30695" lon="6.05277">
        <ele>461</ele>
        <time>2025-06-26T14:25:05Z</time>
      </trkpt>
      <trkpt lat="47.30683" lon="6.05264">
        <ele>459</ele>
        <time>2025-06-26T14:25:14Z</time>
      </trkpt>
      <trkpt lat="47.30673" lon="6.05252">
        <ele>459</ele>
        <time>2025-06-26T14:25:23Z</time>
      </trkpt>
      <trkpt lat="47.30662" lon="6.05239">
        <ele>458</ele>
        <time>2025-06-26T14:25:32Z</time>
      </trkpt>
      <trkpt lat="47.30648" lon="6.05235">
        <ele>455</ele>
        <time>2025-06-26T14:25:42Z</time>
      </trkpt>
      <trkpt lat="47.30635" lon="6.0523">
        <ele>454</ele>
        <time>2025-06-26T14:25:51Z</time>
      </trkpt>
      <trkpt lat="47.3062" lon="6.0523">
        <ele>453</ele>
        <time>2025-06-26T14:26:00Z</time>
      </trkpt>
      <trkpt lat="47.30607" lon="6.05231">
        <ele>450</ele>
        <time>2025-06-26T14:26:09Z</time>
      </trkpt>
      <trkpt lat="47.30595" lon="6.05242">
        <ele>450</ele>
        <time>2025-06-26T14:26:18Z</time>
      </trkpt>
      <trkpt lat="47.30587" lon="6.05258">
        <ele>447</ele>
        <time>2025-06-26T14:26:28Z</time>
      </trkpt>
      <trkpt lat="47.30582" lon="6.05279">
        <ele>446</ele>
        <time>2025-06-26T14:26:41Z</time>
      </trkpt>
      <trkpt lat="47.30579" lon="6.05299">
        <ele>444</ele>
        <time>2025-06-26T14:26:50Z</time>
      </trkpt>
      <trkpt lat="47.30582" lon="6.05318">
        <ele>443</ele>
        <time>2025-06-26T14:27:00Z</time>
      </trkpt>
      <trkpt lat="47.30584" lon="6.05339">
        <ele>443</ele>
        <time>2025-06-26T14:27:10Z</time>
      </trkpt>
      <trkpt lat="47.30587" lon="6.05358">
        <ele>441</ele>
        <time>2025-06-26T14:27:20Z</time>
      </trkpt>
      <trkpt lat="47.3059" lon="6.05378">
        <ele>439</ele>
        <time>2025-06-26T14:27:30Z</time>
      </trkpt>
      <trkpt lat="47.30593" lon="6.05398">
        <ele>437</ele>
        <time>2025-06-26T14:27:40Z</time>
      </trkpt>
      <trkpt lat="47.30597" lon="6.05418">
        <ele>437</ele>
        <time>2025-06-26T14:27:49Z</time>
      </trkpt>
      <trkpt lat="47.306" lon="6.05438">
        <ele>436</ele>
        <time>2025-06-26T14:27:59Z</time>
      </trkpt>
      <trkpt lat="47.30601" lon="6.05459">
        <ele>434</ele>
        <time>2025-06-26T14:28:09Z</time>
      </trkpt>
      <trkpt lat="47.30607" lon="6.05478">
        <ele>432</ele>
        <time>2025-06-26T14:28:19Z</time>
      </trkpt>
      <trkpt lat="47.3061" lon="6.05499">
        <ele>430</ele>
        <time>2025-06-26T14:28:29Z</time>
      </trkpt>
      <trkpt lat="47.30612" lon="6.05519">
        <ele>428</ele>
        <time>2025-06-26T14:28:39Z</time>
      </trkpt>
      <trkpt lat="47.30616" lon="6.05539">
        <ele>429</ele>
        <time>2025-06-26T14:28:48Z</time>
      </trkpt>
      <trkpt lat="47.30612" lon="6.05558">
        <ele>429</ele>
        <time>2025-06-26T14:28:57Z</time>
      </trkpt>
      <trkpt lat="47.30601" lon="6.0557">
        <ele>426</ele>
        <time>2025-06-26T14:29:07Z</time>
      </trkpt>
      <trkpt lat="47.30586" lon="6.05573">
        <ele>428</ele>
        <time>2025-06-26T14:29:43Z</time>
      </trkpt>
      <trkpt lat="47.30572" lon="6.05578">
        <ele>427</ele>
        <time>2025-06-26T14:30:08Z</time>
      </trkpt>
      <trkpt lat="47.30558" lon="6.0558">
        <ele>428</ele>
        <time>2025-06-26T14:30:18Z</time>
      </trkpt>
      <trkpt lat="47.30544" lon="6.05577">
        <ele>429</ele>
        <time>2025-06-26T14:30:37Z</time>
      </trkpt>
      <trkpt lat="47.30531" lon="6.0558">
        <ele>430</ele>
        <time>2025-06-26T14:30:47Z</time>
      </trkpt>
      <trkpt lat="47.30517" lon="6.05578">
        <ele>430</ele>
        <time>2025-06-26T14:30:57Z</time>
      </trkpt>
      <trkpt lat="47.30503" lon="6.05572">
        <ele>432</ele>
        <time>2025-06-26T14:31:07Z</time>
      </trkpt>
      <trkpt lat="47.30495" lon="6.05556">
        <ele>434</ele>
        <time>2025-06-26T14:31:17Z</time>
      </trkpt>
      <trkpt lat="47.30494" lon="6.05536">
        <ele>434</ele>
        <time>2025-06-26T14:31:27Z</time>
      </trkpt>
      <trkpt lat="47.30497" lon="6.05516">
        <ele>437</ele>
        <time>2025-06-26T14:31:38Z</time>
      </trkpt>
      <trkpt lat="47.30498" lon="6.05496">
        <ele>438</ele>
        <time>2025-06-26T14:31:48Z</time>
      </trkpt>
      <trkpt lat="47.30499" lon="6.05476">
        <ele>440</ele>
        <time>2025-06-26T14:31:57Z</time>
      </trkpt>
      <trkpt lat="47.30502" lon="6.05455">
        <ele>441</ele>
        <time>2025-06-26T14:32:07Z</time>
      </trkpt>
      <trkpt lat="47.30505" lon="6.05434">
        <ele>442</ele>
        <time>2025-06-26T14:32:18Z</time>
      </trkpt>
      <trkpt lat="47.30506" lon="6.05414">
        <ele>442</ele>
        <time>2025-06-26T14:32:27Z</time>
      </trkpt>
      <trkpt lat="47.30506" lon="6.05393">
        <ele>442</ele>
        <time>2025-06-26T14:32:37Z</time>
      </trkpt>
      <trkpt lat="47.30505" lon="6.05373">
        <ele>442</ele>
        <time>2025-06-26T14:32:47Z</time>
      </trkpt>
      <trkpt lat="47.30491" lon="6.05372">
        <ele>441</ele>
        <time>2025-06-26T14:33:27Z</time>
      </trkpt>
      <trkpt lat="47.30476" lon="6.0537">
        <ele>441</ele>
        <time>2025-06-26T14:33:37Z</time>
      </trkpt>
      <trkpt lat="47.30464" lon="6.05379">
        <ele>440</ele>
        <time>2025-06-26T14:34:21Z</time>
      </trkpt>
      <trkpt lat="47.30451" lon="6.05388">
        <ele>439</ele>
        <time>2025-06-26T14:34:31Z</time>
      </trkpt>
      <trkpt lat="47.30437" lon="6.0539">
        <ele>440</ele>
        <time>2025-06-26T14:34:43Z</time>
      </trkpt>
      <trkpt lat="47.30423" lon="6.0539">
        <ele>439</ele>
        <time>2025-06-26T14:34:52Z</time>
      </trkpt>
      <trkpt lat="47.30409" lon="6.05386">
        <ele>439</ele>
        <time>2025-06-26T14:35:02Z</time>
      </trkpt>
      <trkpt lat="47.30396" lon="6.05379">
        <ele>437</ele>
        <time>2025-06-26T14:35:14Z</time>
      </trkpt>
      <trkpt lat="47.30383" lon="6.05374">
        <ele>436</ele>
        <time>2025-06-26T14:35:25Z</time>
      </trkpt>
      <trkpt lat="47.30369" lon="6.05369">
        <ele>438</ele>
        <time>2025-06-26T14:35:36Z</time>
      </trkpt>
      <trkpt lat="47.30355" lon="6.05368">
        <ele>436</ele>
        <time>2025-06-26T14:35:53Z</time>
      </trkpt>
      <trkpt lat="47.30341" lon="6.05366">
        <ele>435</ele>
        <time>2025-06-26T14:36:07Z</time>
      </trkpt>
      <trkpt lat="47.30327" lon="6.05364">
        <ele>436</ele>
        <time>2025-06-26T14:36:18Z</time>
      </trkpt>
      <trkpt lat="47.30313" lon="6.0536">
        <ele>434</ele>
        <time>2025-06-26T14:36:30Z</time>
      </trkpt>
      <trkpt lat="47.303" lon="6.05354">
        <ele>432</ele>
        <time>2025-06-26T14:36:41Z</time>
      </trkpt>
      <trkpt lat="47.30286" lon="6.05352">
        <ele>433</ele>
        <time>2025-06-26T14:36:51Z</time>
      </trkpt>
      <trkpt lat="47.30274" lon="6.05345">
        <ele>431</ele>
        <time>2025-06-26T14:37:09Z</time>
      </trkpt>
      <trkpt lat="47.3026" lon="6.05344">
        <ele>430</ele>
        <time>2025-06-26T14:37:19Z</time>
      </trkpt>
      <trkpt lat="47.30245" lon="6.05342">
        <ele>429</ele>
        <time>2025-06-26T14:37:30Z</time>
      </trkpt>
      <trkpt lat="47.30232" lon="6.05335">
        <ele>428</ele>
        <time>2025-06-26T14:37:39Z</time>
      </trkpt>
      <trkpt lat="47.30219" lon="6.05326">
        <ele>428</ele>
        <time>2025-06-26T14:37:49Z</time>
      </trkpt>
      <trkpt lat="47.30212" lon="6.05309">
        <ele>426</ele>
        <time>2025-06-26T14:38:03Z</time>
      </trkpt>
      <trkpt lat="47.30207" lon="6.05291">
        <ele>426</ele>
        <time>2025-06-26T14:38:14Z</time>
      </trkpt>
      <trkpt lat="47.30195" lon="6.05279">
        <ele>426</ele>
        <time>2025-06-26T14:38:25Z</time>
      </trkpt>
      <trkpt lat="47.30186" lon="6.05265">
        <ele>425</ele>
        <time>2025-06-26T14:38:45Z</time>
      </trkpt>
      <trkpt lat="47.30176" lon="6.0525">
        <ele>424</ele>
        <time>2025-06-26T14:38:55Z</time>
      </trkpt>
      <trkpt lat="47.30163" lon="6.05244">
        <ele>423</ele>
        <time>2025-06-26T14:39:08Z</time>
      </trkpt>
      <trkpt lat="47.30149" lon="6.05245">
        <ele>421</ele>
        <time>2025-06-26T14:39:18Z</time>
      </trkpt>
      <trkpt lat="47.30135" lon="6.05248">
        <ele>420</ele>
        <time>2025-06-26T14:39:29Z</time>
      </trkpt>
      <trkpt lat="47.30122" lon="6.05257">
        <ele>420</ele>
        <time>2025-06-26T14:39:39Z</time>
      </trkpt>
      <trkpt lat="47.30109" lon="6.05263">
        <ele>418</ele>
        <time>2025-06-26T14:39:50Z</time>
      </trkpt>
      <trkpt lat="47.30098" lon="6.05276">
        <ele>417</ele>
        <time>2025-06-26T14:40:00Z</time>
      </trkpt>
      <trkpt lat="47.30085" lon="6.05282">
        <ele>415</ele>
        <time>2025-06-26T14:40:11Z</time>
      </trkpt>
      <trkpt lat="47.30071" lon="6.05281">
        <ele>413</ele>
        <time>2025-06-26T14:40:22Z</time>
      </trkpt>
      <trkpt lat="47.30057" lon="6.05283">
        <ele>412</ele>
        <time>2025-06-26T14:40:31Z</time>
      </trkpt>
      <trkpt lat="47.30043" lon="6.05286">
        <ele>411</ele>
        <time>2025-06-26T14:40:44Z</time>
      </trkpt>
      <trkpt lat="47.30029" lon="6.05282">
        <ele>409</ele>
        <time>2025-06-26T14:40:55Z</time>
      </trkpt>
      <trkpt lat="47.30015" lon="6.05285">
        <ele>409</ele>
        <time>2025-06-26T14:41:04Z</time>
      </trkpt>
      <trkpt lat="47.30001" lon="6.05283">
        <ele>411</ele>
        <time>2025-06-26T14:41:16Z</time>
      </trkpt>
      <trkpt lat="47.29988" lon="6.05277">
        <ele>407</ele>
        <time>2025-06-26T14:41:27Z</time>
      </trkpt>
      <trkpt lat="47.29984" lon="6.05257">
        <ele>407</ele>
        <time>2025-06-26T14:41:38Z</time>
      </trkpt>
      <trkpt lat="47.29986" lon="6.05237">
        <ele>407</ele>
        <time>2025-06-26T14:41:57Z</time>
      </trkpt>
      <trkpt lat="47.2998" lon="6.05219">
        <ele>406</ele>
        <time>2025-06-26T14:42:06Z</time>
      </trkpt>
      <trkpt lat="47.29973" lon="6.05202">
        <ele>406</ele>
        <time>2025-06-26T14:42:17Z</time>
      </trkpt>
      <trkpt lat="47.29958" lon="6.05199">
        <ele>406</ele>
        <time>2025-06-26T14:43:09Z</time>
      </trkpt>
      <trkpt lat="47.29946" lon="6.05188">
        <ele>406</ele>
        <time>2025-06-26T14:43:29Z</time>
      </trkpt>
      <trkpt lat="47.29932" lon="6.05181">
        <ele>404</ele>
        <time>2025-06-26T14:45:30Z</time>
      </trkpt>
      <trkpt lat="47.29918" lon="6.05174">
        <ele>403</ele>
        <time>2025-06-26T14:45:42Z</time>
      </trkpt>
      <trkpt lat="47.29907" lon="6.05164">
        <ele>401</ele>
        <time>2025-06-26T14:45:53Z</time>
      </trkpt>
      <trkpt lat="47.29899" lon="6.05147">
        <ele>400</ele>
        <time>2025-06-26T14:46:08Z</time>
      </trkpt>
      <trkpt lat="47.29896" lon="6.05127">
        <ele>400</ele>
        <time>2025-06-26T14:46:20Z</time>
      </trkpt>
      <trkpt lat="47.29889" lon="6.05109">
        <ele>397</ele>
        <time>2025-06-26T14:46:30Z</time>
      </trkpt>
      <trkpt lat="47.29882" lon="6.05092">
        <ele>397</ele>
        <time>2025-06-26T14:46:40Z</time>
      </trkpt>
      <trkpt lat="47.29873" lon="6.05077">
        <ele>395</ele>
        <time>2025-06-26T14:46:53Z</time>
      </trkpt>
      <trkpt lat="47.29863" lon="6.05063">
        <ele>395</ele>
        <time>2025-06-26T14:47:04Z</time>
      </trkpt>
      <trkpt lat="47.29853" lon="6.05049">
        <ele>394</ele>
        <time>2025-06-26T14:47:15Z</time>
      </trkpt>
      <trkpt lat="47.29843" lon="6.05035">
        <ele>393</ele>
        <time>2025-06-26T14:47:26Z</time>
      </trkpt>
      <trkpt lat="47.29837" lon="6.05017">
        <ele>395</ele>
        <time>2025-06-26T14:47:45Z</time>
      </trkpt>
      <trkpt lat="47.29825" lon="6.05006">
        <ele>393</ele>
        <time>2025-06-26T14:47:56Z</time>
      </trkpt>
      <trkpt lat="47.29812" lon="6.05001">
        <ele>391</ele>
        <time>2025-06-26T14:48:07Z</time>
      </trkpt>
      <trkpt lat="47.29808" lon="6.04981">
        <ele>393</ele>
        <time>2025-06-26T14:48:18Z</time>
      </trkpt>
      <trkpt lat="47.29809" lon="6.04961">
        <ele>392</ele>
        <time>2025-06-26T14:48:33Z</time>
      </trkpt>
      <trkpt lat="47.29813" lon="6.04941">
        <ele>393</ele>
        <time>2025-06-26T14:48:44Z</time>
      </trkpt>
      <trkpt lat="47.29817" lon="6.04921">
        <ele>394</ele>
        <time>2025-06-26T14:48:54Z</time>
      </trkpt>
      <trkpt lat="47.2982" lon="6.04901">
        <ele>394</ele>
        <time>2025-06-26T14:49:12Z</time>
      </trkpt>
      <trkpt lat="47.29824" lon="6.04881">
        <ele>395</ele>
        <time>2025-06-26T14:49:23Z</time>
      </trkpt>
      <trkpt lat="47.29829" lon="6.04862">
        <ele>393</ele>
        <time>2025-06-26T14:49:34Z</time>
      </trkpt>
      <trkpt lat="47.29833" lon="6.04843">
        <ele>395</ele>
        <time>2025-06-26T14:49:44Z</time>
      </trkpt>
      <trkpt lat="47.29839" lon="6.04824">
        <ele>394</ele>
        <time>2025-06-26T14:49:53Z</time>
      </trkpt>
      <trkpt lat="47.29843" lon="6.04804">
        <ele>394</ele>
        <time>2025-06-26T14:50:02Z</time>
      </trkpt>
      <trkpt lat="47.29845" lon="6.04783">
        <ele>396</ele>
        <time>2025-06-26T14:50:11Z</time>
      </trkpt>
      <trkpt lat="47.29845" lon="6.04763">
        <ele>398</ele>
        <time>2025-06-26T14:50:21Z</time>
      </trkpt>
      <trkpt lat="47.29847" lon="6.04743">
        <ele>400</ele>
        <time>2025-06-26T14:50:30Z</time>
      </trkpt>
      <trkpt lat="47.29849" lon="6.04723">
        <ele>399</ele>
        <time>2025-06-26T14:50:42Z</time>
      </trkpt>
      <trkpt lat="47.29851" lon="6.04702">
        <ele>398</ele>
        <time>2025-06-26T14:50:50Z</time>
      </trkpt>
      <trkpt lat="47.29854" lon="6.04683">
        <ele>399</ele>
        <time>2025-06-26T14:50:59Z</time>
      </trkpt>
      <trkpt lat="47.29857" lon="6.04663">
        <ele>399</ele>
        <time>2025-06-26T14:51:09Z</time>
      </trkpt>
      <trkpt lat="47.29861" lon="6.04644">
        <ele>404</ele>
        <time>2025-06-26T14:51:19Z</time>
      </trkpt>
      <trkpt lat="47.29868" lon="6.04626">
        <ele>403</ele>
        <time>2025-06-26T14:51:29Z</time>
      </trkpt>
      <trkpt lat="47.29865" lon="6.04606">
        <ele>405</ele>
        <time>2025-06-26T14:51:38Z</time>
      </trkpt>
      <trkpt lat="47.29864" lon="6.04586">
        <ele>410</ele>
        <time>2025-06-26T14:51:48Z</time>
      </trkpt>
      <trkpt lat="47.2986" lon="6.04567">
        <ele>409</ele>
        <time>2025-06-26T14:51:58Z</time>
      </trkpt>
      <trkpt lat="47.29854" lon="6.04548">
        <ele>410</ele>
        <time>2025-06-26T14:52:06Z</time>
      </trkpt>
      <trkpt lat="47.29852" lon="6.04528">
        <ele>409</ele>
        <time>2025-06-26T14:52:16Z</time>
      </trkpt>
      <trkpt lat="47.29856" lon="6.04508">
        <ele>410</ele>
        <time>2025-06-26T14:52:25Z</time>
      </trkpt>
      <trkpt lat="47.29862" lon="6.04488">
        <ele>410</ele>
        <time>2025-06-26T14:52:37Z</time>
      </trkpt>
      <trkpt lat="47.29863" lon="6.04468">
        <ele>410</ele>
        <time>2025-06-26T14:52:45Z</time>
      </trkpt>
      <trkpt lat="47.29867" lon="6.04447">
        <ele>411</ele>
        <time>2025-06-26T14:52:54Z</time>
      </trkpt>
      <trkpt lat="47.29873" lon="6.04429">
        <ele>410</ele>
        <time>2025-06-26T14:53:03Z</time>
      </trkpt>
      <trkpt lat="47.2988" lon="6.04411">
        <ele>410</ele>
        <time>2025-06-26T14:53:13Z</time>
      </trkpt>
      <trkpt lat="47.29888" lon="6.04394">
        <ele>410</ele>
        <time>2025-06-26T14:53:22Z</time>
      </trkpt>
      <trkpt lat="47.29898" lon="6.04379">
        <ele>410</ele>
        <time>2025-06-26T14:53:31Z</time>
      </trkpt>
      <trkpt lat="47.29909" lon="6.04366">
        <ele>414</ele>
        <time>2025-06-26T14:53:41Z</time>
      </trkpt>
      <trkpt lat="47.29916" lon="6.04349">
        <ele>410</ele>
        <time>2025-06-26T14:53:51Z</time>
      </trkpt>
      <trkpt lat="47.29925" lon="6.04333">
        <ele>409</ele>
        <time>2025-06-26T14:54:00Z</time>
      </trkpt>
      <trkpt lat="47.29935" lon="6.04319">
        <ele>407</ele>
        <time>2025-06-26T14:54:11Z</time>
      </trkpt>
      <trkpt lat="47.29942" lon="6.04301">
        <ele>404</ele>
        <time>2025-06-26T14:54:21Z</time>
      </trkpt>
      <trkpt lat="47.29954" lon="6.04289">
        <ele>404</ele>
        <time>2025-06-26T14:54:29Z</time>
      </trkpt>
      <trkpt lat="47.29964" lon="6.04275">
        <ele>403</ele>
        <time>2025-06-26T14:54:38Z</time>
      </trkpt>
      <trkpt lat="47.29974" lon="6.04259">
        <ele>403</ele>
        <time>2025-06-26T14:54:47Z</time>
      </trkpt>
      <trkpt lat="47.29983" lon="6.04243">
        <ele>402</ele>
        <time>2025-06-26T14:55:36Z</time>
      </trkpt>
      <trkpt lat="47.29969" lon="6.04246">
        <ele>401</ele>
        <time>2025-06-26T14:56:20Z</time>
      </trkpt>
      <trkpt lat="47.29983" lon="6.04244">
        <ele>401</ele>
        <time>2025-06-26T14:57:12Z</time>
      </trkpt>
      <trkpt lat="47.29991" lon="6.04227">
        <ele>399</ele>
        <time>2025-06-26T14:57:22Z</time>
      </trkpt>
      <trkpt lat="47.29998" lon="6.04209">
        <ele>398</ele>
        <time>2025-06-26T14:57:33Z</time>
      </trkpt>
      <trkpt lat="47.30003" lon="6.0419">
        <ele>399</ele>
        <time>2025-06-26T14:57:43Z</time>
      </trkpt>
      <trkpt lat="47.3001" lon="6.04173">
        <ele>399</ele>
        <time>2025-06-26T14:57:53Z</time>
      </trkpt>
      <trkpt lat="47.3001" lon="6.04153">
        <ele>398</ele>
        <time>2025-06-26T14:58:07Z</time>
      </trkpt>
      <trkpt lat="47.30011" lon="6.04132">
        <ele>398</ele>
        <time>2025-06-26T14:58:17Z</time>
      </trkpt>
      <trkpt lat="47.30011" lon="6.0411">
        <ele>396</ele>
        <time>2025-06-26T14:58:33Z</time>
      </trkpt>
      <trkpt lat="47.3001" lon="6.0409">
        <ele>396</ele>
        <time>2025-06-26T14:58:42Z</time>
      </trkpt>
      <trkpt lat="47.30015" lon="6.04071">
        <ele>395</ele>
        <time>2025-06-26T14:58:51Z</time>
      </trkpt>
      <trkpt lat="47.30018" lon="6.04051">
        <ele>395</ele>
        <time>2025-06-26T14:59:01Z</time>
      </trkpt>
      <trkpt lat="47.30018" lon="6.04031">
        <ele>396</ele>
        <time>2025-06-26T14:59:21Z</time>
      </trkpt>
      <trkpt lat="47.30015" lon="6.04011">
        <ele>393</ele>
        <time>2025-06-26T14:59:30Z</time>
      </trkpt>
      <trkpt lat="47.30012" lon="6.03991">
        <ele>396</ele>
        <time>2025-06-26T14:59:40Z</time>
      </trkpt>
      <trkpt lat="47.30003" lon="6.03975">
        <ele>396</ele>
        <time>2025-06-26T14:59:52Z</time>
      </trkpt>
      <trkpt lat="47.2999" lon="6.03966">
        <ele>397</ele>
        <time>2025-06-26T15:00:03Z</time>
      </trkpt>
      <trkpt lat="47.29981" lon="6.03951">
        <ele>397</ele>
        <time>2025-06-26T15:00:22Z</time>
      </trkpt>
      <trkpt lat="47.29973" lon="6.03935">
        <ele>395</ele>
        <time>2025-06-26T15:00:56Z</time>
      </trkpt>
      <trkpt lat="47.29965" lon="6.03918">
        <ele>395</ele>
        <time>2025-06-26T15:01:06Z</time>
      </trkpt>
      <trkpt lat="47.29958" lon="6.03898">
        <ele>393</ele>
        <time>2025-06-26T15:01:23Z</time>
      </trkpt>
      <trkpt lat="47.2995" lon="6.0388">
        <ele>394</ele>
        <time>2025-06-26T15:01:32Z</time>
      </trkpt>
      <trkpt lat="47.2994" lon="6.03865">
        <ele>394</ele>
        <time>2025-06-26T15:01:41Z</time>
      </trkpt>
      <trkpt lat="47.29932" lon="6.03847">
        <ele>392</ele>
        <time>2025-06-26T15:01:53Z</time>
      </trkpt>
      <trkpt lat="47.29924" lon="6.0383">
        <ele>393</ele>
        <time>2025-06-26T15:02:22Z</time>
      </trkpt>
      <trkpt lat="47.29918" lon="6.03813">
        <ele>396</ele>
        <time>2025-06-26T15:02:37Z</time>
      </trkpt>
      <trkpt lat="47.29909" lon="6.03798">
        <ele>395</ele>
        <time>2025-06-26T15:02:51Z</time>
      </trkpt>
      <trkpt lat="47.29902" lon="6.0378">
        <ele>396</ele>
        <time>2025-06-26T15:03:10Z</time>
      </trkpt>
      <trkpt lat="47.29894" lon="6.03764">
        <ele>397</ele>
        <time>2025-06-26T15:03:21Z</time>
      </trkpt>
      <trkpt lat="47.29887" lon="6.03746">
        <ele>396</ele>
        <time>2025-06-26T15:03:31Z</time>
      </trkpt>
      <trkpt lat="47.29879" lon="6.03731">
        <ele>398</ele>
        <time>2025-06-26T15:03:42Z</time>
      </trkpt>
      <trkpt lat="47.2987" lon="6.03713">
        <ele>401</ele>
        <time>2025-06-26T15:04:13Z</time>
      </trkpt>
      <trkpt lat="47.29863" lon="6.03697">
        <ele>400</ele>
        <time>2025-06-26T15:04:25Z</time>
      </trkpt>
      <trkpt lat="47.29857" lon="6.03678">
        <ele>400</ele>
        <time>2025-06-26T15:04:36Z</time>
      </trkpt>
      <trkpt lat="47.29847" lon="6.03665">
        <ele>402</ele>
        <time>2025-06-26T15:04:48Z</time>
      </trkpt>
      <trkpt lat="47.29834" lon="6.03655">
        <ele>404</ele>
        <time>2025-06-26T15:04:59Z</time>
      </trkpt>
      <trkpt lat="47.29821" lon="6.03649">
        <ele>404</ele>
        <time>2025-06-26T15:05:12Z</time>
      </trkpt>
      <trkpt lat="47.29809" lon="6.03639">
        <ele>404</ele>
        <time>2025-06-26T15:05:22Z</time>
      </trkpt>
      <trkpt lat="47.29799" lon="6.03625">
        <ele>406</ele>
        <time>2025-06-26T15:05:35Z</time>
      </trkpt>
      <trkpt lat="47.2979" lon="6.0361">
        <ele>405</ele>
        <time>2025-06-26T15:05:46Z</time>
      </trkpt>
      <trkpt lat="47.2978" lon="6.03596">
        <ele>409</ele>
        <time>2025-06-26T15:05:57Z</time>
      </trkpt>
      <trkpt lat="47.29769" lon="6.03584">
        <ele>408</ele>
        <time>2025-06-26T15:06:46Z</time>
      </trkpt>
      <trkpt lat="47.29756" lon="6.0357">
        <ele>407</ele>
        <time>2025-06-26T15:06:56Z</time>
      </trkpt>
      <trkpt lat="47.29744" lon="6.03557">
        <ele>407</ele>
        <time>2025-06-26T15:07:22Z</time>
      </trkpt>
      <trkpt lat="47.29733" lon="6.03544">
        <ele>409</ele>
        <time>2025-06-26T15:08:24Z</time>
      </trkpt>
      <trkpt lat="47.29723" lon="6.03528">
        <ele>408</ele>
        <time>2025-06-26T15:08:32Z</time>
      </trkpt>
      <trkpt lat="47.29716" lon="6.03511">
        <ele>410</ele>
        <time>2025-06-26T15:08:41Z</time>
      </trkpt>
      <trkpt lat="47.29706" lon="6.03497">
        <ele>414</ele>
        <time>2025-06-26T15:08:51Z</time>
      </trkpt>
      <trkpt lat="47.29706" lon="6.03476">
        <ele>411</ele>
        <time>2025-06-26T15:09:28Z</time>
      </trkpt>
      <trkpt lat="47.29707" lon="6.03456">
        <ele>412</ele>
        <time>2025-06-26T15:09:37Z</time>
      </trkpt>
      <trkpt lat="47.29709" lon="6.03436">
        <ele>416</ele>
        <time>2025-06-26T15:09:48Z</time>
      </trkpt>
      <trkpt lat="47.29707" lon="6.03415">
        <ele>416</ele>
        <time>2025-06-26T15:09:59Z</time>
      </trkpt>
      <trkpt lat="47.2971" lon="6.03394">
        <ele>421</ele>
        <time>2025-06-26T15:10:09Z</time>
      </trkpt>
      <trkpt lat="47.29713" lon="6.03374">
        <ele>419</ele>
        <time>2025-06-26T15:10:23Z</time>
      </trkpt>
      <trkpt lat="47.29712" lon="6.03354">
        <ele>420</ele>
        <time>2025-06-26T15:10:32Z</time>
      </trkpt>
      <trkpt lat="47.2971" lon="6.03334">
        <ele>422</ele>
        <time>2025-06-26T15:10:41Z</time>
      </trkpt>
      <trkpt lat="47.29703" lon="6.03316">
        <ele>423</ele>
        <time>2025-06-26T15:10:51Z</time>
      </trkpt>
      <trkpt lat="47.29694" lon="6.03299">
        <ele>425</ele>
        <time>2025-06-26T15:11:02Z</time>
      </trkpt>
      <trkpt lat="47.29686" lon="6.03284">
        <ele>426</ele>
        <time>2025-06-26T15:11:12Z</time>
      </trkpt>
      <trkpt lat="47.29677" lon="6.0327">
        <ele>426</ele>
        <time>2025-06-26T15:11:22Z</time>
      </trkpt>
      <trkpt lat="47.29671" lon="6.03251">
        <ele>425</ele>
        <time>2025-06-26T15:11:31Z</time>
      </trkpt>
      <trkpt lat="47.29665" lon="6.03231">
        <ele>426</ele>
        <time>2025-06-26T15:11:41Z</time>
      </trkpt>
      <trkpt lat="47.29657" lon="6.03215">
        <ele>427</ele>
        <time>2025-06-26T15:11:52Z</time>
      </trkpt>
      <trkpt lat="47.29651" lon="6.03197">
        <ele>427</ele>
        <time>2025-06-26T15:12:03Z</time>
      </trkpt>
      <trkpt lat="47.29645" lon="6.03178">
        <ele>429</ele>
        <time>2025-06-26T15:12:14Z</time>
      </trkpt>
      <trkpt lat="47.29639" lon="6.03161">
        <ele>428</ele>
        <time>2025-06-26T15:12:23Z</time>
      </trkpt>
      <trkpt lat="47.29634" lon="6.03142">
        <ele>430</ele>
        <time>2025-06-26T15:12:33Z</time>
      </trkpt>
      <trkpt lat="47.29636" lon="6.03121">
        <ele>428</ele>
        <time>2025-06-26T15:12:46Z</time>
      </trkpt>
      <trkpt lat="47.29647" lon="6.03107">
        <ele>429</ele>
        <time>2025-06-26T15:12:56Z</time>
      </trkpt>
      <trkpt lat="47.2966" lon="6.03099">
        <ele>428</ele>
        <time>2025-06-26T15:13:10Z</time>
      </trkpt>
      <trkpt lat="47.29672" lon="6.03107">
        <ele>427</ele>
        <time>2025-06-26T15:13:20Z</time>
      </trkpt>
      <trkpt lat="47.29683" lon="6.0312">
        <ele>428</ele>
        <time>2025-06-26T15:13:30Z</time>
      </trkpt>
      <trkpt lat="47.29697" lon="6.03127">
        <ele>427</ele>
        <time>2025-06-26T15:13:41Z</time>
      </trkpt>
      <trkpt lat="47.2971" lon="6.03134">
        <ele>428</ele>
        <time>2025-06-26T15:13:50Z</time>
      </trkpt>
      <trkpt lat="47.29723" lon="6.03139">
        <ele>427</ele>
        <time>2025-06-26T15:14:00Z</time>
      </trkpt>
      <trkpt lat="47.29736" lon="6.03146">
        <ele>427</ele>
        <time>2025-06-26T15:14:10Z</time>
      </trkpt>
      <trkpt lat="47.29749" lon="6.03154">
        <ele>429</ele>
        <time>2025-06-26T15:14:19Z</time>
      </trkpt>
      <trkpt lat="47.29762" lon="6.03159">
        <ele>432</ele>
        <time>2025-06-26T15:14:30Z</time>
      </trkpt>
      <trkpt lat="47.29776" lon="6.03158">
        <ele>429</ele>
        <time>2025-06-26T15:14:39Z</time>
      </trkpt>
      <trkpt lat="47.2979" lon="6.03155">
        <ele>430</ele>
        <time>2025-06-26T15:14:49Z</time>
      </trkpt>
      <trkpt lat="47.29804" lon="6.03154">
        <ele>431</ele>
        <time>2025-06-26T15:15:00Z</time>
      </trkpt>
      <trkpt lat="47.29817" lon="6.03151">
        <ele>432</ele>
        <time>2025-06-26T15:15:08Z</time>
      </trkpt>
      <trkpt lat="47.29831" lon="6.03147">
        <ele>432</ele>
        <time>2025-06-26T15:15:17Z</time>
      </trkpt>
      <trkpt lat="47.29844" lon="6.0314">
        <ele>435</ele>
        <time>2025-06-26T15:15:26Z</time>
      </trkpt>
      <trkpt lat="47.29857" lon="6.03132">
        <ele>436</ele>
        <time>2025-06-26T15:15:36Z</time>
      </trkpt>
      <trkpt lat="47.2987" lon="6.03125">
        <ele>436</ele>
        <time>2025-06-26T15:15:45Z</time>
      </trkpt>
      <trkpt lat="47.29882" lon="6.03115">
        <ele>437</ele>
        <time>2025-06-26T15:15:54Z</time>
      </trkpt>
      <trkpt lat="47.29896" lon="6.0311">
        <ele>439</ele>
        <time>2025-06-26T15:16:03Z</time>
      </trkpt>
      <trkpt lat="47.29908" lon="6.03101">
        <ele>439</ele>
        <time>2025-06-26T15:16:13Z</time>
      </trkpt>
      <trkpt lat="47.29921" lon="6.03093">
        <ele>441</ele>
        <time>2025-06-26T15:16:26Z</time>
      </trkpt>
      <trkpt lat="47.29934" lon="6.03085">
        <ele>442</ele>
        <time>2025-06-26T15:16:36Z</time>
      </trkpt>
      <trkpt lat="47.29947" lon="6.03075">
        <ele>443</ele>
        <time>2025-06-26T15:16:45Z</time>
      </trkpt>
      <trkpt lat="47.2996" lon="6.03069">
        <ele>444</ele>
        <time>2025-06-26T15:16:54Z</time>
      </trkpt>
      <trkpt lat="47.29974" lon="6.03064">
        <ele>444</ele>
        <time>2025-06-26T15:17:03Z</time>
      </trkpt>
      <trkpt lat="47.29987" lon="6.03057">
        <ele>444</ele>
        <time>2025-06-26T15:17:13Z</time>
      </trkpt>
      <trkpt lat="47.30001" lon="6.0305">
        <ele>446</ele>
        <time>2025-06-26T15:17:22Z</time>
      </trkpt>
      <trkpt lat="47.30009" lon="6.03067">
        <ele>446</ele>
        <time>2025-06-26T15:17:38Z</time>
      </trkpt>
      <trkpt lat="47.3002" lon="6.0308">
        <ele>448</ele>
        <time>2025-06-26T15:17:48Z</time>
      </trkpt>
      <trkpt lat="47.30031" lon="6.03093">
        <ele>450</ele>
        <time>2025-06-26T15:17:58Z</time>
      </trkpt>
      <trkpt lat="47.30038" lon="6.03111">
        <ele>451</ele>
        <time>2025-06-26T15:18:08Z</time>
      </trkpt>
      <trkpt lat="47.30046" lon="6.03127">
        <ele>453</ele>
        <time>2025-06-26T15:18:18Z</time>
      </trkpt>
      <trkpt lat="47.30057" lon="6.0314">
        <ele>454</ele>
        <time>2025-06-26T15:18:29Z</time>
      </trkpt>
      <trkpt lat="47.3007" lon="6.03143">
        <ele>456</ele>
        <time>2025-06-26T15:18:39Z</time>
      </trkpt>
      <trkpt lat="47.30084" lon="6.0315">
        <ele>457</ele>
        <time>2025-06-26T15:18:51Z</time>
      </trkpt>
      <trkpt lat="47.30098" lon="6.03152">
        <ele>458</ele>
        <time>2025-06-26T15:19:02Z</time>
      </trkpt>
      <trkpt lat="47.30112" lon="6.03153">
        <ele>457</ele>
        <time>2025-06-26T15:19:12Z</time>
      </trkpt>
      <trkpt lat="47.30125" lon="6.03154">
        <ele>459</ele>
        <time>2025-06-26T15:19:22Z</time>
      </trkpt>
      <trkpt lat="47.30139" lon="6.03151">
        <ele>460</ele>
        <time>2025-06-26T15:19:30Z</time>
      </trkpt>
      <trkpt lat="47.30152" lon="6.03145">
        <ele>460</ele>
        <time>2025-06-26T15:19:40Z</time>
      </trkpt>
      <trkpt lat="47.30165" lon="6.03142">
        <ele>461</ele>
        <time>2025-06-26T15:19:49Z</time>
      </trkpt>
      <trkpt lat="47.30179" lon="6.03142">
        <ele>461</ele>
        <time>2025-06-26T15:19:58Z</time>
      </trkpt>
      <trkpt lat="47.30192" lon="6.03145">
        <ele>462</ele>
        <time>2025-06-26T15:20:07Z</time>
      </trkpt>
      <trkpt lat="47.30207" lon="6.03146">
        <ele>459</ele>
        <time>2025-06-26T15:20:17Z</time>
      </trkpt>
      <trkpt lat="47.30219" lon="6.03155">
        <ele>463</ele>
        <time>2025-06-26T15:20:27Z</time>
      </trkpt>
      <trkpt lat="47.30231" lon="6.03165">
        <ele>461</ele>
        <time>2025-06-26T15:20:36Z</time>
      </trkpt>
      <trkpt lat="47.30242" lon="6.03179">
        <ele>465</ele>
        <time>2025-06-26T15:20:47Z</time>
      </trkpt>
      <trkpt lat="47.30254" lon="6.03189">
        <ele>466</ele>
        <time>2025-06-26T15:20:56Z</time>
      </trkpt>
      <trkpt lat="47.30267" lon="6.03197">
        <ele>467</ele>
        <time>2025-06-26T15:21:06Z</time>
      </trkpt>
      <trkpt lat="47.30279" lon="6.03207">
        <ele>468</ele>
        <time>2025-06-26T15:21:17Z</time>
      </trkpt>
      <trkpt lat="47.30291" lon="6.03217">
        <ele>471</ele>
        <time>2025-06-26T15:21:29Z</time>
      </trkpt>
      <trkpt lat="47.30295" lon="6.03195">
        <ele>472</ele>
        <time>2025-06-26T15:23:01Z</time>
      </trkpt>
      <trkpt lat="47.30302" lon="6.03177">
        <ele>475</ele>
        <time>2025-06-26T15:23:12Z</time>
      </trkpt>
      <trkpt lat="47.30314" lon="6.03169">
        <ele>479</ele>
        <time>2025-06-26T15:23:30Z</time>
      </trkpt>
      <trkpt lat="47.30328" lon="6.03171">
        <ele>482</ele>
        <time>2025-06-26T15:23:53Z</time>
      </trkpt>
      <trkpt lat="47.30339" lon="6.03183">
        <ele>482</ele>
        <time>2025-06-26T15:24:05Z</time>
      </trkpt>
      <trkpt lat="47.30352" lon="6.03189">
        <ele>485</ele>
        <time>2025-06-26T15:24:18Z</time>
      </trkpt>
      <trkpt lat="47.30365" lon="6.03197">
        <ele>487</ele>
        <time>2025-06-26T15:24:38Z</time>
      </trkpt>
      <trkpt lat="47.30378" lon="6.03206">
        <ele>490</ele>
        <time>2025-06-26T15:24:50Z</time>
      </trkpt>
      <trkpt lat="47.30392" lon="6.0321">
        <ele>491</ele>
        <time>2025-06-26T15:25:04Z</time>
      </trkpt>
      <trkpt lat="47.30403" lon="6.03223">
        <ele>492</ele>
        <time>2025-06-26T15:25:26Z</time>
      </trkpt>
      <trkpt lat="47.30412" lon="6.03207">
        <ele>497</ele>
        <time>2025-06-26T15:26:18Z</time>
      </trkpt>
      <trkpt lat="47.30425" lon="6.03201">
        <ele>500</ele>
        <time>2025-06-26T15:26:32Z</time>
      </trkpt>
      <trkpt lat="47.30433" lon="6.03219">
        <ele>501</ele>
        <time>2025-06-26T15:26:50Z</time>
      </trkpt>
      <trkpt lat="47.30439" lon="6.03238">
        <ele>501</ele>
        <time>2025-06-26T15:27:01Z</time>
      </trkpt>
      <trkpt lat="47.30446" lon="6.03255">
        <ele>503</ele>
        <time>2025-06-26T15:27:13Z</time>
      </trkpt>
      <trkpt lat="47.30458" lon="6.03264">
        <ele>502</ele>
        <time>2025-06-26T15:27:24Z</time>
      </trkpt>
      <trkpt lat="47.30468" lon="6.0328">
        <ele>504</ele>
        <time>2025-06-26T15:27:35Z</time>
      </trkpt>
      <trkpt lat="47.30478" lon="6.03293">
        <ele>504</ele>
        <time>2025-06-26T15:27:45Z</time>
      </trkpt>
      <trkpt lat="47.30491" lon="6.033">
        <ele>505</ele>
        <time>2025-06-26T15:27:57Z</time>
      </trkpt>
      <trkpt lat="47.30503" lon="6.03311">
        <ele>507</ele>
        <time>2025-06-26T15:28:08Z</time>
      </trkpt>
      <trkpt lat="47.30509" lon="6.0333">
        <ele>509</ele>
        <time>2025-06-26T15:28:18Z</time>
      </trkpt>
      <trkpt lat="47.3052" lon="6.03343">
        <ele>510</ele>
        <time>2025-06-26T15:28:28Z</time>
      </trkpt>
      <trkpt lat="47.30527" lon="6.03361">
        <ele>510</ele>
        <time>2025-06-26T15:28:39Z</time>
      </trkpt>
      <trkpt lat="47.30532" lon="6.0338">
        <ele>509</ele>
        <time>2025-06-26T15:28:50Z</time>
      </trkpt>
      <trkpt lat="47.30541" lon="6.03396">
        <ele>510</ele>
        <time>2025-06-26T15:28:59Z</time>
      </trkpt>
      <trkpt lat="47.30547" lon="6.03415">
        <ele>511</ele>
        <time>2025-06-26T15:29:09Z</time>
      </trkpt>
      <trkpt lat="47.30545" lon="6.03435">
        <ele>511</ele>
        <time>2025-06-26T15:29:33Z</time>
      </trkpt>
      <trkpt lat="47.30555" lon="6.03448">
        <ele>511</ele>
        <time>2025-06-26T15:29:44Z</time>
      </trkpt>
      <trkpt lat="47.30547" lon="6.03433">
        <ele>510</ele>
        <time>2025-06-26T15:30:24Z</time>
      </trkpt>
      <trkpt lat="47.30543" lon="6.03413">
        <ele>510</ele>
        <time>2025-06-26T15:30:38Z</time>
      </trkpt>
      <trkpt lat="47.30539" lon="6.03394">
        <ele>510</ele>
        <time>2025-06-26T15:30:51Z</time>
      </trkpt>
      <trkpt lat="47.30532" lon="6.03377">
        <ele>510</ele>
        <time>2025-06-26T15:31:03Z</time>
      </trkpt>
      <trkpt lat="47.30526" lon="6.03359">
        <ele>510</ele>
        <time>2025-06-26T15:31:17Z</time>
      </trkpt>
      <trkpt lat="47.30529" lon="6.03338">
        <ele>511</ele>
        <time>2025-06-26T15:31:36Z</time>
      </trkpt>
      <trkpt lat="47.30542" lon="6.03343">
        <ele>513</ele>
        <time>2025-06-26T15:32:09Z</time>
      </trkpt>
      <trkpt lat="47.30554" lon="6.03353">
        <ele>516</ele>
        <time>2025-06-26T15:32:22Z</time>
      </trkpt>
      <trkpt lat="47.30567" lon="6.0336">
        <ele>522</ele>
        <time>2025-06-26T15:32:57Z</time>
      </trkpt>
      <trkpt lat="47.30579" lon="6.0337">
        <ele>522</ele>
        <time>2025-06-26T15:33:10Z</time>
      </trkpt>
      <trkpt lat="47.30593" lon="6.03376">
        <ele>525</ele>
        <time>2025-06-26T15:33:27Z</time>
      </trkpt>
      <trkpt lat="47.30606" lon="6.03385">
        <ele>528</ele>
        <time>2025-06-26T15:33:55Z</time>
      </trkpt>
      <trkpt lat="47.30615" lon="6.03399">
        <ele>528</ele>
        <time>2025-06-26T15:34:10Z</time>
      </trkpt>
      <trkpt lat="47.3062" lon="6.03418">
        <ele>529</ele>
        <time>2025-06-26T15:34:57Z</time>
      </trkpt>
      <trkpt lat="47.30627" lon="6.03436">
        <ele>532</ele>
        <time>2025-06-26T15:35:40Z</time>
      </trkpt>
      <trkpt lat="47.30633" lon="6.03454">
        <ele>532</ele>
        <time>2025-06-26T15:35:48Z</time>
      </trkpt>
      <trkpt lat="47.30646" lon="6.03463">
        <ele>533</ele>
        <time>2025-06-26T15:35:58Z</time>
      </trkpt>
      <trkpt lat="47.30656" lon="6.03476">
        <ele>533</ele>
        <time>2025-06-26T15:37:14Z</time>
      </trkpt>
      <trkpt lat="47.30666" lon="6.03489">
        <ele>537</ele>
        <time>2025-06-26T15:38:46Z</time>
      </trkpt>
      <trkpt lat="47.30677" lon="6.03502">
        <ele>542</ele>
        <time>2025-06-26T15:41:51Z</time>
      </trkpt>
      <trkpt lat="47.3069" lon="6.03509">
        <ele>541</ele>
        <time>2025-06-26T15:42:55Z</time>
      </trkpt>
      <trkpt lat="47.30699" lon="6.03523">
        <ele>540</ele>
        <time>2025-06-26T15:43:07Z</time>
      </trkpt>
      <trkpt lat="47.30707" lon="6.03541">
        <ele>541</ele>
        <time>2025-06-26T15:43:35Z</time>
      </trkpt>
      <trkpt lat="47.30716" lon="6.03557">
        <ele>544</ele>
        <time>2025-06-26T15:44:27Z</time>
      </trkpt>
      <trkpt lat="47.30724" lon="6.03572">
        <ele>544</ele>
        <time>2025-06-26T15:44:37Z</time>
      </trkpt>
      <trkpt lat="47.30733" lon="6.03589">
        <ele>546</ele>
        <time>2025-06-26T15:44:49Z</time>
      </trkpt>
      <trkpt lat="47.30739" lon="6.03608">
        <ele>546</ele>
        <time>2025-06-26T15:44:59Z</time>
      </trkpt>
      <trkpt lat="47.30747" lon="6.03624">
        <ele>549</ele>
        <time>2025-06-26T15:45:09Z</time>
      </trkpt>
      <trkpt lat="47.30757" lon="6.03638">
        <ele>547</ele>
        <time>2025-06-26T15:45:22Z</time>
      </trkpt>
      <trkpt lat="47.30764" lon="6.03656">
        <ele>548</ele>
        <time>2025-06-26T15:45:31Z</time>
      </trkpt>
      <trkpt lat="47.30769" lon="6.03675">
        <ele>548</ele>
        <time>2025-06-26T15:45:41Z</time>
      </trkpt>
      <trkpt lat="47.30775" lon="6.03694">
        <ele>549</ele>
        <time>2025-06-26T15:45:50Z</time>
      </trkpt>
      <trkpt lat="47.3078" lon="6.03713">
        <ele>551</ele>
        <time>2025-06-26T15:45:59Z</time>
      </trkpt>
      <trkpt lat="47.30785" lon="6.03732">
        <ele>551</ele>
        <time>2025-06-26T15:46:09Z</time>
      </trkpt>
      <trkpt lat="47.30791" lon="6.0375">
        <ele>552</ele>
        <time>2025-06-26T15:46:19Z</time>
      </trkpt>
      <trkpt lat="47.30795" lon="6.0377">
        <ele>552</ele>
        <time>2025-06-26T15:46:29Z</time>
      </trkpt>
      <trkpt lat="47.30794" lon="6.03791">
        <ele>551</ele>
        <time>2025-06-26T15:46:39Z</time>
      </trkpt>
      <trkpt lat="47.30798" lon="6.03811">
        <ele>554</ele>
        <time>2025-06-26T15:46:49Z</time>
      </trkpt>
      <trkpt lat="47.30803" lon="6.03831">
        <ele>555</ele>
        <time>2025-06-26T15:46:59Z</time>
      </trkpt>
      <trkpt lat="47.30807" lon="6.03849">
        <ele>556</ele>
        <time>2025-06-26T15:47:10Z</time>
      </trkpt>
      <trkpt lat="47.30809" lon="6.0387">
        <ele>557</ele>
        <time>2025-06-26T15:47:20Z</time>
      </trkpt>
      <trkpt lat="47.30811" lon="6.0389">
        <ele>557</ele>
        <time>2025-06-26T15:47:31Z</time>
      </trkpt>
      <trkpt lat="47.30813" lon="6.03911">
        <ele>558</ele>
        <time>2025-06-26T15:47:41Z</time>
      </trkpt>
      <trkpt lat="47.30816" lon="6.0393">
        <ele>560</ele>
        <time>2025-06-26T15:47:51Z</time>
      </trkpt>
      <trkpt lat="47.30815" lon="6.03952">
        <ele>562</ele>
        <time>2025-06-26T15:48:02Z</time>
      </trkpt>
      <trkpt lat="47.30816" lon="6.03971">
        <ele>562</ele>
        <time>2025-06-26T15:48:12Z</time>
      </trkpt>
      <trkpt lat="47.30817" lon="6.03991">
        <ele>563</ele>
        <time>2025-06-26T15:48:21Z</time>
      </trkpt>
      <trkpt lat="47.30817" lon="6.04012">
        <ele>562</ele>
        <time>2025-06-26T15:48:31Z</time>
      </trkpt>
      <trkpt lat="47.30816" lon="6.04033">
        <ele>564</ele>
        <time>2025-06-26T15:48:41Z</time>
      </trkpt>
      <trkpt lat="47.30814" lon="6.04052">
        <ele>564</ele>
        <time>2025-06-26T15:48:51Z</time>
      </trkpt>
      <trkpt lat="47.30812" lon="6.04072">
        <ele>565</ele>
        <time>2025-06-26T15:49:01Z</time>
      </trkpt>
      <trkpt lat="47.30817" lon="6.04091">
        <ele>565</ele>
        <time>2025-06-26T15:49:11Z</time>
      </trkpt>
      <trkpt lat="47.30829" lon="6.04103">
        <ele>567</ele>
        <time>2025-06-26T15:49:24Z</time>
      </trkpt>
      <trkpt lat="47.30839" lon="6.0409">
        <ele>566</ele>
        <time>2025-06-26T15:49:37Z</time>
      </trkpt>
      <trkpt lat="47.30841" lon="6.0407">
        <ele>567</ele>
        <time>2025-06-26T15:49:47Z</time>
      </trkpt>
      <trkpt lat="47.3084" lon="6.04049">
        <ele>566</ele>
        <time>2025-06-26T15:49:57Z</time>
      </trkpt>
      <trkpt lat="47.3084" lon="6.04028">
        <ele>567</ele>
        <time>2025-06-26T15:50:07Z</time>
      </trkpt>
      <trkpt lat="47.30841" lon="6.04007">
        <ele>570</ele>
        <time>2025-06-26T15:50:17Z</time>
      </trkpt>
      <trkpt lat="47.30841" lon="6.03986">
        <ele>568</ele>
        <time>2025-06-26T15:50:27Z</time>
      </trkpt>
      <trkpt lat="47.30842" lon="6.03964">
        <ele>569</ele>
        <time>2025-06-26T15:50:38Z</time>
      </trkpt>
      <trkpt lat="47.30843" lon="6.03943">
        <ele>570</ele>
        <time>2025-06-26T15:50:48Z</time>
      </trkpt>
      <trkpt lat="47.30846" lon="6.03923">
        <ele>569</ele>
        <time>2025-06-26T15:50:58Z</time>
      </trkpt>
      <trkpt lat="47.30848" lon="6.03903">
        <ele>569</ele>
        <time>2025-06-26T15:51:08Z</time>
      </trkpt>
      <trkpt lat="47.30853" lon="6.03884">
        <ele>570</ele>
        <time>2025-06-26T15:51:18Z</time>
      </trkpt>
      <trkpt lat="47.30859" lon="6.03866">
        <ele>572</ele>
        <time>2025-06-26T15:51:29Z</time>
      </trkpt>
      <trkpt lat="47.30864" lon="6.03846">
        <ele>573</ele>
        <time>2025-06-26T15:51:40Z</time>
      </trkpt>
      <trkpt lat="47.30869" lon="6.03828">
        <ele>575</ele>
        <time>2025-06-26T15:51:49Z</time>
      </trkpt>
      <trkpt lat="47.30875" lon="6.03809">
        <ele>575</ele>
        <time>2025-06-26T15:51:59Z</time>
      </trkpt>
      <trkpt lat="47.30877" lon="6.03789">
        <ele>577</ele>
        <time>2025-06-26T15:52:08Z</time>
      </trkpt>
      <trkpt lat="47.30882" lon="6.03771">
        <ele>577</ele>
        <time>2025-06-26T15:52:19Z</time>
      </trkpt>
      <trkpt lat="47.30887" lon="6.03751">
        <ele>577</ele>
        <time>2025-06-26T15:52:31Z</time>
      </trkpt>
      <trkpt lat="47.30893" lon="6.03733">
        <ele>578</ele>
        <time>2025-06-26T15:52:42Z</time>
      </trkpt>
      <trkpt lat="47.30897" lon="6.03713">
        <ele>580</ele>
        <time>2025-06-26T15:52:53Z</time>
      </trkpt>
      <trkpt lat="47.30901" lon="6.03693">
        <ele>578</ele>
        <time>2025-06-26T15:53:04Z</time>
      </trkpt>
      <trkpt lat="47.30905" lon="6.03673">
        <ele>580</ele>
        <time>2025-06-26T15:53:14Z</time>
      </trkpt>
      <trkpt lat="47.30911" lon="6.03655">
        <ele>584</ele>
        <time>2025-06-26T15:53:25Z</time>
      </trkpt>
      <trkpt lat="47.30916" lon="6.03636">
        <ele>583</ele>
        <time>2025-06-26T15:53:36Z</time>
      </trkpt>
      <trkpt lat="47.3092" lon="6.03617">
        <ele>583</ele>
        <time>2025-06-26T15:53:50Z</time>
      </trkpt>
      <trkpt lat="47.30932" lon="6.03608">
        <ele>585</ele>
        <time>2025-06-26T15:54:01Z</time>
      </trkpt>
      <trkpt lat="47.30946" lon="6.03611">
        <ele>585</ele>
        <time>2025-06-26T15:54:12Z</time>
      </trkpt>
      <trkpt lat="47.3096" lon="6.03609">
        <ele>587</ele>
        <time>2025-06-26T15:54:44Z</time>
      </trkpt>
      <trkpt lat="47.30972" lon="6.03597">
        <ele>586</ele>
        <time>2025-06-26T15:54:56Z</time>
      </trkpt>
      <trkpt lat="47.30985" lon="6.03587">
        <ele>585</ele>
        <time>2025-06-26T15:55:08Z</time>
      </trkpt>
      <trkpt lat="47.3099" lon="6.03568">
        <ele>589</ele>
        <time>2025-06-26T15:55:19Z</time>
      </trkpt>
      <trkpt lat="47.31003" lon="6.03562">
        <ele>588</ele>
        <time>2025-06-26T15:55:31Z</time>
      </trkpt>
      <trkpt lat="47.31017" lon="6.03555">
        <ele>591</ele>
        <time>2025-06-26T15:55:42Z</time>
      </trkpt>
      <trkpt lat="47.31029" lon="6.03548">
        <ele>590</ele>
        <time>2025-06-26T15:55:54Z</time>
      </trkpt>
      <trkpt lat="47.31043" lon="6.0355">
        <ele>589</ele>
        <time>2025-06-26T15:56:07Z</time>
      </trkpt>
      <trkpt lat="47.31056" lon="6.03545">
        <ele>591</ele>
        <time>2025-06-26T15:56:24Z</time>
      </trkpt>
      <trkpt lat="47.3107" lon="6.0355">
        <ele>591</ele>
        <time>2025-06-26T15:56:36Z</time>
      </trkpt>
      <trkpt lat="47.31083" lon="6.03552">
        <ele>591</ele>
        <time>2025-06-26T15:56:47Z</time>
      </trkpt>
      <trkpt lat="47.31096" lon="6.03544">
        <ele>588</ele>
        <time>2025-06-26T15:57:30Z</time>
      </trkpt>
      <trkpt lat="47.3111" lon="6.03544">
        <ele>590</ele>
        <time>2025-06-26T15:57:41Z</time>
      </trkpt>
      <trkpt lat="47.31124" lon="6.03548">
        <ele>590</ele>
        <time>2025-06-26T15:57:56Z</time>
      </trkpt>
      <trkpt lat="47.31136" lon="6.03558">
        <ele>591</ele>
        <time>2025-06-26T15:58:11Z</time>
      </trkpt>
      <trkpt lat="47.3115" lon="6.03565">
        <ele>592</ele>
        <time>2025-06-26T15:58:24Z</time>
      </trkpt>
      <trkpt lat="47.31164" lon="6.03566">
        <ele>590</ele>
        <time>2025-06-26T15:58:35Z</time>
      </trkpt>
      <trkpt lat="47.3118" lon="6.03563">
        <ele>591</ele>
        <time>2025-06-26T15:58:59Z</time>
      </trkpt>
      <trkpt lat="47.31193" lon="6.03557">
        <ele>591</ele>
        <time>2025-06-26T15:59:11Z</time>
      </trkpt>
      <trkpt lat="47.31205" lon="6.03568">
        <ele>591</ele>
        <time>2025-06-26T15:59:24Z</time>
      </trkpt>
      <trkpt lat="47.3122" lon="6.03568">
        <ele>590</ele>
        <time>2025-06-26T16:00:22Z</time>
      </trkpt>
      <trkpt lat="47.31233" lon="6.03573">
        <ele>589</ele>
        <time>2025-06-26T16:00:33Z</time>
      </trkpt>
      <trkpt lat="47.31246" lon="6.03579">
        <ele>588</ele>
        <time>2025-06-26T16:01:08Z</time>
      </trkpt>
      <trkpt lat="47.3126" lon="6.03581">
        <ele>587</ele>
        <time>2025-06-26T16:01:29Z</time>
      </trkpt>
      <trkpt lat="47.31274" lon="6.0358">
        <ele>584</ele>
        <time>2025-06-26T16:01:41Z</time>
      </trkpt>
      <trkpt lat="47.31287" lon="6.03583">
        <ele>582</ele>
        <time>2025-06-26T16:01:51Z</time>
      </trkpt>
      <trkpt lat="47.31297" lon="6.0357">
        <ele>582</ele>
        <time>2025-06-26T16:02:19Z</time>
      </trkpt>
      <trkpt lat="47.3131" lon="6.03563">
        <ele>581</ele>
        <time>2025-06-26T16:02:28Z</time>
      </trkpt>
      <trkpt lat="47.31324" lon="6.0356">
        <ele>578</ele>
        <time>2025-06-26T16:02:42Z</time>
      </trkpt>
      <trkpt lat="47.31334" lon="6.03546">
        <ele>578</ele>
        <time>2025-06-26T16:02:54Z</time>
      </trkpt>
      <trkpt lat="47.31345" lon="6.03533">
        <ele>576</ele>
        <time>2025-06-26T16:03:04Z</time>
      </trkpt>
      <trkpt lat="47.31357" lon="6.03522">
        <ele>574</ele>
        <time>2025-06-26T16:03:14Z</time>
      </trkpt>
      <trkpt lat="47.31365" lon="6.03505">
        <ele>572</ele>
        <time>2025-06-26T16:03:24Z</time>
      </trkpt>
      <trkpt lat="47.3137" lon="6.03486">
        <ele>569</ele>
        <time>2025-06-26T16:03:36Z</time>
      </trkpt>
      <trkpt lat="47.31384" lon="6.0348">
        <ele>564</ele>
        <time>2025-06-26T16:04:01Z</time>
      </trkpt>
      <trkpt lat="47.31394" lon="6.03466">
        <ele>560</ele>
        <time>2025-06-26T16:04:10Z</time>
      </trkpt>
      <trkpt lat="47.31399" lon="6.03447">
        <ele>559</ele>
        <time>2025-06-26T16:04:24Z</time>
      </trkpt>
      <trkpt lat="47.31408" lon="6.03429">
        <ele>556</ele>
        <time>2025-06-26T16:04:33Z</time>
      </trkpt>
      <trkpt lat="47.31418" lon="6.03414">
        <ele>552</ele>
        <time>2025-06-26T16:04:45Z</time>
      </trkpt>
      <trkpt lat="47.31427" lon="6.03397">
        <ele>550</ele>
        <time>2025-06-26T16:04:55Z</time>
      </trkpt>
      <trkpt lat="47.31436" lon="6.03381">
        <ele>548</ele>
        <time>2025-06-26T16:05:03Z</time>
      </trkpt>
      <trkpt lat="47.31442" lon="6.03363">
        <ele>545</ele>
        <time>2025-06-26T16:05:15Z</time>
      </trkpt>
      <trkpt lat="47.31441" lon="6.03341">
        <ele>543</ele>
        <time>2025-06-26T16:05:27Z</time>
      </trkpt>
      <trkpt lat="47.31437" lon="6.03323">
        <ele>540</ele>
        <time>2025-06-26T16:05:40Z</time>
      </trkpt>
      <trkpt lat="47.31435" lon="6.03303">
        <ele>538</ele>
        <time>2025-06-26T16:05:52Z</time>
      </trkpt>
      <trkpt lat="47.31432" lon="6.03283">
        <ele>536</ele>
        <time>2025-06-26T16:06:04Z</time>
      </trkpt>
      <trkpt lat="47.31434" lon="6.03261">
        <ele>533</ele>
        <time>2025-06-26T16:06:59Z</time>
      </trkpt>
      <trkpt lat="47.31432" lon="6.03238">
        <ele>529</ele>
        <time>2025-06-26T16:07:09Z</time>
      </trkpt>
      <trkpt lat="47.31427" lon="6.03219">
        <ele>527</ele>
        <time>2025-06-26T16:07:21Z</time>
      </trkpt>
      <trkpt lat="47.31424" lon="6.03199">
        <ele>525</ele>
        <time>2025-06-26T16:07:32Z</time>
      </trkpt>
      <trkpt lat="47.3143" lon="6.0318">
        <ele>521</ele>
        <time>2025-06-26T16:07:42Z</time>
      </trkpt>
      <trkpt lat="47.31441" lon="6.03169">
        <ele>519</ele>
        <time>2025-06-26T16:07:50Z</time>
      </trkpt>
      <trkpt lat="47.31453" lon="6.03156">
        <ele>513</ele>
        <time>2025-06-26T16:07:59Z</time>
      </trkpt>
      <trkpt lat="47.31464" lon="6.03145">
        <ele>510</ele>
        <time>2025-06-26T16:08:06Z</time>
      </trkpt>
      <trkpt lat="47.31468" lon="6.03125">
        <ele>507</ele>
        <time>2025-06-26T16:08:14Z</time>
      </trkpt>
      <trkpt lat="47.31474" lon="6.03106">
        <ele>505</ele>
        <time>2025-06-26T16:08:21Z</time>
      </trkpt>
      <trkpt lat="47.31489" lon="6.03093">
        <ele>501</ele>
        <time>2025-06-26T16:08:28Z</time>
      </trkpt>
      <trkpt lat="47.31498" lon="6.03065">
        <ele>496</ele>
        <time>2025-06-26T16:08:38Z</time>
      </trkpt>
      <trkpt lat="47.31495" lon="6.03041">
        <ele>492</ele>
        <time>2025-06-26T16:08:56Z</time>
      </trkpt>
      <trkpt lat="47.3149" lon="6.03022">
        <ele>490</ele>
        <time>2025-06-26T16:09:03Z</time>
      </trkpt>
      <trkpt lat="47.31504" lon="6.03005">
        <ele>487</ele>
        <time>2025-06-26T16:09:13Z</time>
      </trkpt>
      <trkpt lat="47.3152" lon="6.03005">
        <ele>485</ele>
        <time>2025-06-26T16:09:19Z</time>
      </trkpt>
      <trkpt lat="47.31535" lon="6.02992">
        <ele>484</ele>
        <time>2025-06-26T16:09:27Z</time>
      </trkpt>
      <trkpt lat="47.31547" lon="6.02981">
        <ele>480</ele>
        <time>2025-06-26T16:09:43Z</time>
      </trkpt>
      <trkpt lat="47.31541" lon="6.02962">
        <ele>479</ele>
        <time>2025-06-26T16:09:57Z</time>
      </trkpt>
      <trkpt lat="47.3153" lon="6.02949">
        <ele>483</ele>
        <time>2025-06-26T16:10:43Z</time>
      </trkpt>
      <trkpt lat="47.31528" lon="6.02929">
        <ele>483</ele>
        <time>2025-06-26T16:11:16Z</time>
      </trkpt>
      <trkpt lat="47.31516" lon="6.02917">
        <ele>484</ele>
        <time>2025-06-26T16:11:28Z</time>
      </trkpt>
      <trkpt lat="47.31504" lon="6.02927">
        <ele>484</ele>
        <time>2025-06-26T16:12:32Z</time>
      </trkpt>
      <trkpt lat="47.31511" lon="6.02909">
        <ele>483</ele>
        <time>2025-06-26T16:14:09Z</time>
      </trkpt>
      <trkpt lat="47.31524" lon="6.02903">
        <ele>482</ele>
        <time>2025-06-26T16:14:21Z</time>
      </trkpt>
      <trkpt lat="47.31538" lon="6.02897">
        <ele>480</ele>
        <time>2025-06-26T16:14:35Z</time>
      </trkpt>
      <trkpt lat="47.3155" lon="6.0289">
        <ele>480</ele>
        <time>2025-06-26T16:14:46Z</time>
      </trkpt>
      <trkpt lat="47.31563" lon="6.02883">
        <ele>478</ele>
        <time>2025-06-26T16:14:57Z</time>
      </trkpt>
      <trkpt lat="47.31577" lon="6.02876">
        <ele>475</ele>
        <time>2025-06-26T16:15:07Z</time>
      </trkpt>
      <trkpt lat="47.3159" lon="6.02869">
        <ele>474</ele>
        <time>2025-06-26T16:15:17Z</time>
      </trkpt>
      <trkpt lat="47.31602" lon="6.02861">
        <ele>471</ele>
        <time>2025-06-26T16:15:27Z</time>
      </trkpt>
      <trkpt lat="47.31611" lon="6.02845">
        <ele>469</ele>
        <time>2025-06-26T16:15:37Z</time>
      </trkpt>
      <trkpt lat="47.31623" lon="6.02833">
        <ele>467</ele>
        <time>2025-06-26T16:15:46Z</time>
      </trkpt>
      <trkpt lat="47.3163" lon="6.02817">
        <ele>468</ele>
        <time>2025-06-26T16:15:56Z</time>
      </trkpt>
      <trkpt lat="47.31639" lon="6.02801">
        <ele>466</ele>
        <time>2025-06-26T16:16:06Z</time>
      </trkpt>
      <trkpt lat="47.31647" lon="6.02785">
        <ele>466</ele>
        <time>2025-06-26T16:16:15Z</time>
      </trkpt>
      <trkpt lat="47.31654" lon="6.02768">
        <ele>464</ele>
        <time>2025-06-26T16:16:25Z</time>
      </trkpt>
      <trkpt lat="47.31662" lon="6.02751">
        <ele>465</ele>
        <time>2025-06-26T16:16:38Z</time>
      </trkpt>
      <trkpt lat="47.31667" lon="6.02731">
        <ele>464</ele>
        <time>2025-06-26T16:16:49Z</time>
      </trkpt>
      <trkpt lat="47.31673" lon="6.02712">
        <ele>461</ele>
        <time>2025-06-26T16:17:00Z</time>
      </trkpt>
      <trkpt lat="47.3168" lon="6.02695">
        <ele>462</ele>
        <time>2025-06-26T16:17:09Z</time>
      </trkpt>
      <trkpt lat="47.3169" lon="6.02682">
        <ele>464</ele>
        <time>2025-06-26T16:17:19Z</time>
      </trkpt>
      <trkpt lat="47.31702" lon="6.02669">
        <ele>463</ele>
        <time>2025-06-26T16:17:30Z</time>
      </trkpt>
      <trkpt lat="47.31713" lon="6.02657">
        <ele>463</ele>
        <time>2025-06-26T16:17:41Z</time>
      </trkpt>
      <trkpt lat="47.31721" lon="6.02641">
        <ele>459</ele>
        <time>2025-06-26T16:17:51Z</time>
      </trkpt>
      <trkpt lat="47.31731" lon="6.02625">
        <ele>457</ele>
        <time>2025-06-26T16:18:00Z</time>
      </trkpt>
      <trkpt lat="47.3174" lon="6.02605">
        <ele>454</ele>
        <time>2025-06-26T16:18:08Z</time>
      </trkpt>
      <trkpt lat="47.31741" lon="6.02585">
        <ele>453</ele>
        <time>2025-06-26T16:18:14Z</time>
      </trkpt>
      <trkpt lat="47.31744" lon="6.02565">
        <ele>451</ele>
        <time>2025-06-26T16:18:20Z</time>
      </trkpt>
      <trkpt lat="47.31746" lon="6.02545">
        <ele>449</ele>
        <time>2025-06-26T16:18:26Z</time>
      </trkpt>
      <trkpt lat="47.31748" lon="6.02524">
        <ele>446</ele>
        <time>2025-06-26T16:18:32Z</time>
      </trkpt>
      <trkpt lat="47.31748" lon="6.02504">
        <ele>445</ele>
        <time>2025-06-26T16:18:37Z</time>
      </trkpt>
      <trkpt lat="47.31749" lon="6.02484">
        <ele>444</ele>
        <time>2025-06-26T16:18:42Z</time>
      </trkpt>
      <trkpt lat="47.3175" lon="6.02463">
        <ele>443</ele>
        <time>2025-06-26T16:18:47Z</time>
      </trkpt>
      <trkpt lat="47.31747" lon="6.02443">
        <ele>441</ele>
        <time>2025-06-26T16:18:54Z</time>
      </trkpt>
      <trkpt lat="47.31752" lon="6.02422">
        <ele>440</ele>
        <time>2025-06-26T16:19:06Z</time>
      </trkpt>
      <trkpt lat="47.31758" lon="6.02404">
        <ele>438</ele>
        <time>2025-06-26T16:19:15Z</time>
      </trkpt>
      <trkpt lat="47.31761" lon="6.02384">
        <ele>441</ele>
        <time>2025-06-26T16:19:27Z</time>
      </trkpt>
      <trkpt lat="47.31763" lon="6.02364">
        <ele>439</ele>
        <time>2025-06-26T16:19:38Z</time>
      </trkpt>
      <trkpt lat="47.31763" lon="6.02343">
        <ele>438</ele>
        <time>2025-06-26T16:19:49Z</time>
      </trkpt>
      <trkpt lat="47.31764" lon="6.02321">
        <ele>435</ele>
        <time>2025-06-26T16:20:03Z</time>
      </trkpt>
      <trkpt lat="47.31771" lon="6.02303">
        <ele>435</ele>
        <time>2025-06-26T16:20:41Z</time>
      </trkpt>
      <trkpt lat="47.3176" lon="6.02292">
        <ele>434</ele>
        <time>2025-06-26T16:21:05Z</time>
      </trkpt>
      <trkpt lat="47.31752" lon="6.02272">
        <ele>433</ele>
        <time>2025-06-26T16:21:56Z</time>
      </trkpt>
      <trkpt lat="47.31751" lon="6.02252">
        <ele>434</ele>
        <time>2025-06-26T16:22:06Z</time>
      </trkpt>
      <trkpt lat="47.31747" lon="6.02231">
        <ele>433</ele>
        <time>2025-06-26T16:22:17Z</time>
      </trkpt>
      <trkpt lat="47.3174" lon="6.02213">
        <ele>430</ele>
        <time>2025-06-26T16:22:28Z</time>
      </trkpt>
      <trkpt lat="47.31737" lon="6.02194">
        <ele>429</ele>
        <time>2025-06-26T16:22:37Z</time>
      </trkpt>
      <trkpt lat="47.31734" lon="6.02174">
        <ele>428</ele>
        <time>2025-06-26T16:22:47Z</time>
      </trkpt>
      <trkpt lat="47.31729" lon="6.02155">
        <ele>424</ele>
        <time>2025-06-26T16:22:57Z</time>
      </trkpt>
      <trkpt lat="47.31723" lon="6.02135">
        <ele>424</ele>
        <time>2025-06-26T16:23:07Z</time>
      </trkpt>
      <trkpt lat="47.31718" lon="6.02116">
        <ele>422</ele>
        <time>2025-06-26T16:23:16Z</time>
      </trkpt>
      <trkpt lat="47.31719" lon="6.02096">
        <ele>420</ele>
        <time>2025-06-26T16:23:22Z</time>
      </trkpt>
      <trkpt lat="47.3172" lon="6.02076">
        <ele>417</ele>
        <time>2025-06-26T16:23:29Z</time>
      </trkpt>
      <trkpt lat="47.31719" lon="6.02056">
        <ele>415</ele>
        <time>2025-06-26T16:23:36Z</time>
      </trkpt>
      <trkpt lat="47.31711" lon="6.02034">
        <ele>413</ele>
        <time>2025-06-26T16:23:47Z</time>
      </trkpt>
      <trkpt lat="47.31699" lon="6.02024">
        <ele>411</ele>
        <time>2025-06-26T16:23:57Z</time>
      </trkpt>
      <trkpt lat="47.31688" lon="6.0201">
        <ele>411</ele>
        <time>2025-06-26T16:24:11Z</time>
      </trkpt>
      <trkpt lat="47.31681" lon="6.01993">
        <ele>409</ele>
        <time>2025-06-26T16:24:20Z</time>
      </trkpt>
      <trkpt lat="47.31672" lon="6.01978">
        <ele>410</ele>
        <time>2025-06-26T16:24:39Z</time>
      </trkpt>
      <trkpt lat="47.31663" lon="6.01962">
        <ele>409</ele>
        <time>2025-06-26T16:24:49Z</time>
      </trkpt>
      <trkpt lat="47.31654" lon="6.01947">
        <ele>410</ele>
        <time>2025-06-26T16:24:59Z</time>
      </trkpt>
      <trkpt lat="47.31644" lon="6.01935">
        <ele>411</ele>
        <time>2025-06-26T16:25:09Z</time>
      </trkpt>
      <trkpt lat="47.31633" lon="6.01921">
        <ele>410</ele>
        <time>2025-06-26T16:25:18Z</time>
      </trkpt>
      <trkpt lat="47.3163" lon="6.01901">
        <ele>410</ele>
        <time>2025-06-26T16:25:56Z</time>
      </trkpt>
      <trkpt lat="47.31625" lon="6.01883">
        <ele>408</ele>
        <time>2025-06-26T16:26:21Z</time>
      </trkpt>
      <trkpt lat="47.31619" lon="6.01864">
        <ele>407</ele>
        <time>2025-06-26T16:26:31Z</time>
      </trkpt>
      <trkpt lat="47.31615" lon="6.01844">
        <ele>406</ele>
        <time>2025-06-26T16:26:41Z</time>
      </trkpt>
      <trkpt lat="47.31608" lon="6.01826">
        <ele>406</ele>
        <time>2025-06-26T16:26:51Z</time>
      </trkpt>
      <trkpt lat="47.31603" lon="6.01806">
        <ele>406</ele>
        <time>2025-06-26T16:27:02Z</time>
      </trkpt>
      <trkpt lat="47.31604" lon="6.01786">
        <ele>404</ele>
        <time>2025-06-26T16:27:12Z</time>
      </trkpt>
      <trkpt lat="47.316" lon="6.01766">
        <ele>404</ele>
        <time>2025-06-26T16:27:24Z</time>
      </trkpt>
      <trkpt lat="47.31596" lon="6.01745">
        <ele>399</ele>
        <time>2025-06-26T16:27:35Z</time>
      </trkpt>
      <trkpt lat="47.31593" lon="6.01723">
        <ele>397</ele>
        <time>2025-06-26T16:27:45Z</time>
      </trkpt>
      <trkpt lat="47.3159" lon="6.01703">
        <ele>394</ele>
        <time>2025-06-26T16:27:55Z</time>
      </trkpt>
      <trkpt lat="47.31594" lon="6.01684">
        <ele>392</ele>
        <time>2025-06-26T16:28:04Z</time>
      </trkpt>
      <trkpt lat="47.31606" lon="6.01675">
        <ele>391</ele>
        <time>2025-06-26T16:28:17Z</time>
      </trkpt>
      <trkpt lat="47.3162" lon="6.01668">
        <ele>387</ele>
        <time>2025-06-26T16:28:28Z</time>
      </trkpt>
      <trkpt lat="47.31634" lon="6.01662">
        <ele>386</ele>
        <time>2025-06-26T16:28:37Z</time>
      </trkpt>
      <trkpt lat="47.31648" lon="6.01665">
        <ele>385</ele>
        <time>2025-06-26T16:28:47Z</time>
      </trkpt>
      <trkpt lat="47.3166" lon="6.01676">
        <ele>383</ele>
        <time>2025-06-26T16:28:58Z</time>
      </trkpt>
      <trkpt lat="47.3167" lon="6.01689">
        <ele>379</ele>
        <time>2025-06-26T16:29:09Z</time>
      </trkpt>
      <trkpt lat="47.31678" lon="6.01705">
        <ele>379</ele>
        <time>2025-06-26T16:29:20Z</time>
      </trkpt>
      <trkpt lat="47.31689" lon="6.01718">
        <ele>377</ele>
        <time>2025-06-26T16:29:29Z</time>
      </trkpt>
      <trkpt lat="47.31701" lon="6.0173">
        <ele>375</ele>
        <time>2025-06-26T16:29:38Z</time>
      </trkpt>
      <trkpt lat="47.31713" lon="6.01738">
        <ele>375</ele>
        <time>2025-06-26T16:29:47Z</time>
      </trkpt>
      <trkpt lat="47.31727" lon="6.0174">
        <ele>372</ele>
        <time>2025-06-26T16:29:58Z</time>
      </trkpt>
      <trkpt lat="47.31741" lon="6.0174">
        <ele>371</ele>
        <time>2025-06-26T16:30:08Z</time>
      </trkpt>
      <trkpt lat="47.31755" lon="6.01737">
        <ele>369</ele>
        <time>2025-06-26T16:30:19Z</time>
      </trkpt>
      <trkpt lat="47.31768" lon="6.01731">
        <ele>366</ele>
        <time>2025-06-26T16:30:30Z</time>
      </trkpt>
      <trkpt lat="47.3178" lon="6.01717">
        <ele>366</ele>
        <time>2025-06-26T16:30:39Z</time>
      </trkpt>
      <trkpt lat="47.31791" lon="6.01706">
        <ele>360</ele>
        <time>2025-06-26T16:30:48Z</time>
      </trkpt>
      <trkpt lat="47.31801" lon="6.01691">
        <ele>354</ele>
        <time>2025-06-26T16:31:08Z</time>
      </trkpt>
      <trkpt lat="47.31813" lon="6.0168">
        <ele>354</ele>
        <time>2025-06-26T16:31:30Z</time>
      </trkpt>
      <trkpt lat="47.31826" lon="6.01685">
        <ele>351</ele>
        <time>2025-06-26T16:31:50Z</time>
      </trkpt>
      <trkpt lat="47.3184" lon="6.01686">
        <ele>350</ele>
        <time>2025-06-26T16:31:58Z</time>
      </trkpt>
      <trkpt lat="47.31854" lon="6.01683">
        <ele>348</ele>
        <time>2025-06-26T16:32:06Z</time>
      </trkpt>
      <trkpt lat="47.31867" lon="6.01679">
        <ele>347</ele>
        <time>2025-06-26T16:32:16Z</time>
      </trkpt>
      <trkpt lat="47.3188" lon="6.01672">
        <ele>346</ele>
        <time>2025-06-26T16:38:35Z</time>
      </trkpt>
      <trkpt lat="47.31892" lon="6.01658">
        <ele>344</ele>
        <time>2025-06-26T16:39:13Z</time>
      </trkpt>
      <trkpt lat="47.31902" lon="6.01644">
        <ele>342</ele>
        <time>2025-06-26T16:39:23Z</time>
      </trkpt>
      <trkpt lat="47.31913" lon="6.01631">
        <ele>340</ele>
        <time>2025-06-26T16:39:35Z</time>
      </trkpt>
      <trkpt lat="47.31923" lon="6.01615">
        <ele>337</ele>
        <time>2025-06-26T16:39:47Z</time>
      </trkpt>
      <trkpt lat="47.3193" lon="6.01598">
        <ele>334</ele>
        <time>2025-06-26T16:39:58Z</time>
      </trkpt>
      <trkpt lat="47.3194" lon="6.01583">
        <ele>335</ele>
        <time>2025-06-26T16:40:08Z</time>
      </trkpt>
      <trkpt lat="47.3195" lon="6.01569">
        <ele>333</ele>
        <time>2025-06-26T16:40:18Z</time>
      </trkpt>
      <trkpt lat="47.31958" lon="6.01552">
        <ele>331</ele>
        <time>2025-06-26T16:40:29Z</time>
      </trkpt>
      <trkpt lat="47.31966" lon="6.01536">
        <ele>330</ele>
        <time>2025-06-26T16:40:38Z</time>
      </trkpt>
      <trkpt lat="47.31975" lon="6.0152">
        <ele>328</ele>
        <time>2025-06-26T16:40:47Z</time>
      </trkpt>
      <trkpt lat="47.31986" lon="6.01506">
        <ele>325</ele>
        <time>2025-06-26T16:41:00Z</time>
      </trkpt>
      <trkpt lat="47.31994" lon="6.01489">
        <ele>323</ele>
        <time>2025-06-26T16:41:11Z</time>
      </trkpt>
      <trkpt lat="47.32004" lon="6.01477">
        <ele>321</ele>
        <time>2025-06-26T16:41:20Z</time>
      </trkpt>
      <trkpt lat="47.32015" lon="6.01464">
        <ele>320</ele>
        <time>2025-06-26T16:41:29Z</time>
      </trkpt>
      <trkpt lat="47.32024" lon="6.01447">
        <ele>318</ele>
        <time>2025-06-26T16:41:39Z</time>
      </trkpt>
      <trkpt lat="47.32034" lon="6.01433">
        <ele>317</ele>
        <time>2025-06-26T16:41:48Z</time>
      </trkpt>
      <trkpt lat="47.32044" lon="6.01418">
        <ele>315</ele>
        <time>2025-06-26T16:41:57Z</time>
      </trkpt>
      <trkpt lat="47.32055" lon="6.01404">
        <ele>314</ele>
        <time>2025-06-26T16:42:09Z</time>
      </trkpt>
      <trkpt lat="47.32066" lon="6.01392">
        <ele>313</ele>
        <time>2025-06-26T16:42:17Z</time>
      </trkpt>
      <trkpt lat="47.32078" lon="6.01383">
        <ele>311</ele>
        <time>2025-06-26T16:42:27Z</time>
      </trkpt>
      <trkpt lat="47.32085" lon="6.01366">
        <ele>310</ele>
        <time>2025-06-26T16:42:38Z</time>
      </trkpt>
      <trkpt lat="47.32086" lon="6.01346">
        <ele>309</ele>
        <time>2025-06-26T16:42:49Z</time>
      </trkpt>
      <trkpt lat="47.32088" lon="6.01326">
        <ele>309</ele>
        <time>2025-06-26T16:42:58Z</time>
      </trkpt>
      <trkpt lat="47.32096" lon="6.0131">
        <ele>307</ele>
        <time>2025-06-26T16:43:07Z</time>
      </trkpt>
      <trkpt lat="47.32106" lon="6.01296">
        <ele>306</ele>
        <time>2025-06-26T16:43:18Z</time>
      </trkpt>
      <trkpt lat="47.32118" lon="6.01286">
        <ele>305</ele>
        <time>2025-06-26T16:43:26Z</time>
      </trkpt>
      <trkpt lat="47.32131" lon="6.01275">
        <ele>304</ele>
        <time>2025-06-26T16:43:36Z</time>
      </trkpt>
      <trkpt lat="47.32144" lon="6.01267">
        <ele>304</ele>
        <time>2025-06-26T16:43:45Z</time>
      </trkpt>
      <trkpt lat="47.32158" lon="6.01261">
        <ele>304</ele>
        <time>2025-06-26T16:43:55Z</time>
      </trkpt>
      <trkpt lat="47.32172" lon="6.01256">
        <ele>304</ele>
        <time>2025-06-26T16:44:05Z</time>
      </trkpt>
      <trkpt lat="47.32185" lon="6.01253">
        <ele>303</ele>
        <time>2025-06-26T16:44:15Z</time>
      </trkpt>
      <trkpt lat="47.32198" lon="6.01253">
        <ele>303</ele>
        <time>2025-06-26T16:44:24Z</time>
      </trkpt>
      <trkpt lat="47.32212" lon="6.01255">
        <ele>303</ele>
        <time>2025-06-26T16:44:33Z</time>
      </trkpt>
      <trkpt lat="47.32227" lon="6.01259">
        <ele>301</ele>
        <time>2025-06-26T16:44:46Z</time>
      </trkpt>
      <trkpt lat="47.32241" lon="6.01263">
        <ele>301</ele>
        <time>2025-06-26T16:44:57Z</time>
      </trkpt>
      <trkpt lat="47.32255" lon="6.01265">
        <ele>299</ele>
        <time>2025-06-26T16:45:07Z</time>
      </trkpt>
      <trkpt lat="47.32269" lon="6.01258">
        <ele>298</ele>
        <time>2025-06-26T16:45:17Z</time>
      </trkpt>
      <trkpt lat="47.32282" lon="6.01259">
        <ele>298</ele>
        <time>2025-06-26T16:45:27Z</time>
      </trkpt>
      <trkpt lat="47.32296" lon="6.01256">
        <ele>296</ele>
        <time>2025-06-26T16:45:37Z</time>
      </trkpt>
      <trkpt lat="47.32309" lon="6.01252">
        <ele>295</ele>
        <time>2025-06-26T16:45:47Z</time>
      </trkpt>
      <trkpt lat="47.32323" lon="6.01254">
        <ele>294</ele>
        <time>2025-06-26T16:45:58Z</time>
      </trkpt>
      <trkpt lat="47.32336" lon="6.01256">
        <ele>293</ele>
        <time>2025-06-26T16:46:07Z</time>
      </trkpt>
      <trkpt lat="47.3235" lon="6.01256">
        <ele>292</ele>
        <time>2025-06-26T16:46:18Z</time>
      </trkpt>
      <trkpt lat="47.32364" lon="6.01257">
        <ele>292</ele>
        <time>2025-06-26T16:46:27Z</time>
      </trkpt>
      <trkpt lat="47.32377" lon="6.01264">
        <ele>290</ele>
        <time>2025-06-26T16:46:37Z</time>
      </trkpt>
      <trkpt lat="47.32387" lon="6.01278">
        <ele>288</ele>
        <time>2025-06-26T16:46:47Z</time>
      </trkpt>
      <trkpt lat="47.32396" lon="6.01293">
        <ele>288</ele>
        <time>2025-06-26T16:46:56Z</time>
      </trkpt>
      <trkpt lat="47.32406" lon="6.01306">
        <ele>286</ele>
        <time>2025-06-26T16:47:08Z</time>
      </trkpt>
      <trkpt lat="47.32417" lon="6.01318">
        <ele>285</ele>
        <time>2025-06-26T16:47:18Z</time>
      </trkpt>
      <trkpt lat="47.32429" lon="6.0133">
        <ele>283</ele>
        <time>2025-06-26T16:47:28Z</time>
      </trkpt>
      <trkpt lat="47.3244" lon="6.01341">
        <ele>282</ele>
        <time>2025-06-26T16:47:38Z</time>
      </trkpt>
      <trkpt lat="47.3245" lon="6.01355">
        <ele>281</ele>
        <time>2025-06-26T16:47:47Z</time>
      </trkpt>
      <trkpt lat="47.32461" lon="6.01369">
        <ele>280</ele>
        <time>2025-06-26T16:47:57Z</time>
      </trkpt>
      <trkpt lat="47.32468" lon="6.01386">
        <ele>279</ele>
        <time>2025-06-26T16:48:07Z</time>
      </trkpt>
      <trkpt lat="47.32477" lon="6.01404">
        <ele>279</ele>
        <time>2025-06-26T16:48:17Z</time>
      </trkpt>
      <trkpt lat="47.32483" lon="6.01424">
        <ele>277</ele>
        <time>2025-06-26T16:48:26Z</time>
      </trkpt>
      <trkpt lat="47.32491" lon="6.0144">
        <ele>277</ele>
        <time>2025-06-26T16:48:35Z</time>
      </trkpt>
      <trkpt lat="47.32499" lon="6.01455">
        <ele>276</ele>
        <time>2025-06-26T16:48:45Z</time>
      </trkpt>
      <trkpt lat="47.32503" lon="6.01475">
        <ele>274</ele>
        <time>2025-06-26T16:49:26Z</time>
      </trkpt>
      <trkpt lat="47.32517" lon="6.01478">
        <ele>274</ele>
        <time>2025-06-26T16:49:58Z</time>
      </trkpt>
      <trkpt lat="47.32529" lon="6.01467">
        <ele>273</ele>
        <time>2025-06-26T16:50:07Z</time>
      </trkpt>
      <trkpt lat="47.32541" lon="6.01456">
        <ele>274</ele>
        <time>2025-06-26T16:50:17Z</time>
      </trkpt>
      <trkpt lat="47.32552" lon="6.01446">
        <ele>273</ele>
        <time>2025-06-26T16:50:27Z</time>
      </trkpt>
      <trkpt lat="47.32564" lon="6.01433">
        <ele>273</ele>
        <time>2025-06-26T16:50:38Z</time>
      </trkpt>
      <trkpt lat="47.32577" lon="6.01424">
        <ele>273</ele>
        <time>2025-06-26T16:50:48Z</time>
      </trkpt>
      <trkpt lat="47.3259" lon="6.01419">
        <ele>273</ele>
        <time>2025-06-26T16:50:58Z</time>
      </trkpt>
      <trkpt lat="47.32603" lon="6.01413">
        <ele>273</ele>
        <time>2025-06-26T16:51:07Z</time>
      </trkpt>
      <trkpt lat="47.32617" lon="6.0141">
        <ele>273</ele>
        <time>2025-06-26T16:51:16Z</time>
      </trkpt>
      <trkpt lat="47.32628" lon="6.01398">
        <ele>273</ele>
        <time>2025-06-26T16:51:26Z</time>
      </trkpt>
      <trkpt lat="47.32641" lon="6.01391">
        <ele>273</ele>
        <time>2025-06-26T16:51:36Z</time>
      </trkpt>
      <trkpt lat="47.32656" lon="6.01387">
        <ele>273</ele>
        <time>2025-06-26T16:51:49Z</time>
      </trkpt>
      <trkpt lat="47.32668" lon="6.01379">
        <ele>273</ele>
        <time>2025-06-26T16:52:00Z</time>
      </trkpt>
      <trkpt lat="47.3267" lon="6.0136">
        <ele>274</ele>
        <time>2025-06-26T16:52:09Z</time>
      </trkpt>
      <trkpt lat="47.32681" lon="6.01347">
        <ele>273</ele>
        <time>2025-06-26T16:52:19Z</time>
      </trkpt>
      <trkpt lat="47.32695" lon="6.01344">
        <ele>274</ele>
        <time>2025-06-26T16:52:30Z</time>
      </trkpt>
      <trkpt lat="47.32701" lon="6.01326">
        <ele>274</ele>
        <time>2025-06-26T16:52:41Z</time>
      </trkpt>
      <trkpt lat="47.32712" lon="6.01314">
        <ele>275</ele>
        <time>2025-06-26T16:52:52Z</time>
      </trkpt>
      <trkpt lat="47.32721" lon="6.01298">
        <ele>275</ele>
        <time>2025-06-26T16:53:02Z</time>
      </trkpt>
      <trkpt lat="47.32724" lon="6.01279">
        <ele>275</ele>
        <time>2025-06-26T16:53:12Z</time>
      </trkpt>
      <trkpt lat="47.32726" lon="6.01259">
        <ele>275</ele>
        <time>2025-06-26T16:53:23Z</time>
      </trkpt>
      <trkpt lat="47.32726" lon="6.01239">
        <ele>275</ele>
        <time>2025-06-26T16:53:34Z</time>
      </trkpt>
      <trkpt lat="47.32734" lon="6.01223">
        <ele>277</ele>
        <time>2025-06-26T16:53:45Z</time>
      </trkpt>
      <trkpt lat="47.32742" lon="6.01207">
        <ele>277</ele>
        <time>2025-06-26T16:53:55Z</time>
      </trkpt>
      <trkpt lat="47.32756" lon="6.01202">
        <ele>278</ele>
        <time>2025-06-26T16:54:06Z</time>
      </trkpt>
      <trkpt lat="47.32764" lon="6.01186">
        <ele>279</ele>
        <time>2025-06-26T16:54:17Z</time>
      </trkpt>
      <trkpt lat="47.32767" lon="6.01165">
        <ele>279</ele>
        <time>2025-06-26T16:54:29Z</time>
      </trkpt>
      <trkpt lat="47.32767" lon="6.01143">
        <ele>280</ele>
        <time>2025-06-26T16:54:40Z</time>
      </trkpt>
      <trkpt lat="47.32768" lon="6.01124">
        <ele>280</ele>
        <time>2025-06-26T16:54:49Z</time>
      </trkpt>
      <trkpt lat="47.32781" lon="6.01124">
        <ele>280</ele>
        <time>2025-06-26T16:55:13Z</time>
      </trkpt>
      <trkpt lat="47.32766" lon="6.0113">
        <ele>287</ele>
        <time>2025-06-26T16:56:43Z</time>
      </trkpt>
    </trkseg>
  </trk>
</gpx>